<- Previous Day | Today | Next Day ->

All Data for 12 February 2024

 

Time A - D Temp A - D Dew Point A - D Humidity A - D Pressure A - D Wind A - D Wind Dir Gust A - D Rain Rate A - D Rain Total
14:08 10.5 3.8 63 1010.6 10.7 SW 13.6 0.0 0.1
14:09 10.4 3.7 63 1010.8 7.6 S 13.6 0.0 0.1
14:10 10.3 3.6 63 1010.7 7.6 WSW 13.6 0.0 0.1
14:11 10.3 3.6 63 1010.8 10.7 SW 13.6 0.0 0.1
13:09 11.4 4.8 64 1010.4 11.4 SW 11.4 0.0 0.1
13:10 11.4 4.8 64 1010.4 9.2 SSW 12.1 0.0 0.1
13:22 11.5 4.9 64 1010.1 10.7 SW 12.1 0.0 0.1
13:23 11.4 4.8 64 1010.3 7.6 SW 12.1 0.0 0.1
13:24 11.3 4.7 64 1010.4 6.9 W 10.7 0.0 0.1
13:25 11.1 4.6 64 1010.5 6.9 W 10.7 0.0 0.1
13:26 11.1 4.6 64 1010.6 5.4 SW 10.7 0.0 0.1
13:27 10.9 4.4 64 1010.4 6.9 NW 10.7 0.0 0.1
13:28 10.8 4.3 64 1010.3 11.4 W 11.4 0.0 0.1
13:29 10.8 4.3 64 1010.3 6.0 SW 11.4 0.0 0.1
13:30 10.6 4.1 64 1010.2 6.9 SW 11.4 0.0 0.1
13:31 10.6 4.1 64 1010.4 5.4 SW 11.4 0.0 0.1
13:32 10.5 4.0 64 1010.2 5.4 SW 11.4 0.0 0.1
13:33 10.4 3.9 64 1010.4 7.6 SW 11.4 0.0 0.1
14:06 10.8 4.3 64 1010.6 11.4 SW 13.6 0.0 0.1
14:07 10.6 4.1 64 1010.5 13.6 W 13.6 0.0 0.1
14:12 10.3 3.8 64 1010.8 11.4 WSW 13.6 0.0 0.1
14:13 10.3 3.8 64 1010.5 11.4 S 13.6 0.0 0.1
14:20 10.8 4.3 64 1010.9 11.4 SW 13.6 0.0 0.1
14:21 10.8 4.3 64 1010.7 8.3 SW 13.6 0.0 0.1
14:22 10.8 4.3 64 1010.8 12.1 SW 13.6 0.0 0.1
14:23 10.8 4.3 64 1010.6 13.0 SW 13.6 0.0 0.1
14:24 10.8 4.3 64 1010.8 13.0 SW 13.6 0.0 0.1
14:25 10.8 4.3 64 1010.9 13.0 SW 13.6 0.0 0.1
14:26 10.8 4.3 64 1010.9 10.7 SW 13.6 0.0 0.1
14:27 10.9 4.4 64 1010.9 8.3 W 13.6 0.0 0.1
14:28 10.9 4.4 64 1010.7 9.8 SW 13.6 0.0 0.1
14:29 10.9 4.4 64 1010.8 9.8 SW 13.6 0.0 0.1
14:30 10.9 4.4 64 1010.6 9.8 SSW 13.6 0.0 0.1
14:31 10.8 4.3 64 1010.7 14.5 SW 14.5 0.0 0.1
14:32 10.7 4.2 64 1010.7 12.1 SW 14.5 0.0 0.1
14:34 10.5 4.0 64 1010.8 12.1 SW 14.5 0.0 0.1
14:35 10.4 3.9 64 1010.9 12.1 SW 14.5 0.0 0.1
14:36 10.3 3.8 64 1010.8 9.8 SW 14.5 0.0 0.1
14:37 10.2 3.7 64 1010.9 9.8 W 14.5 0.0 0.1
14:38 10.1 3.6 64 1010.8 9.8 SW 14.5 0.0 0.1
13:06 11.5 5.2 65 1010.3 11.4 SW 11.4 0.0 0.1
13:07 11.5 5.2 65 1010.4 10.7 S 11.4 0.0 0.1
13:08 11.5 5.2 65 1010.3 11.4 SW 11.4 0.0 0.1
13:11 11.4 5.1 65 1010.3 10.7 W 12.1 0.0 0.1
13:12 11.4 5.1 65 1010.3 12.1 W 12.1 0.0 0.1
13:13 11.4 5.1 65 1010.4 12.1 WSW 12.1 0.0 0.1
13:14 11.5 5.2 65 1010.2 10.7 NW 12.1 0.0 0.1
13:16 11.5 5.2 65 1010.3 9.2 S 12.1 0.0 0.1
13:17 11.5 5.2 65 1010.3 9.8 SW 12.1 0.0 0.1
13:18 11.5 5.2 65 1010.4 10.7 SW 12.1 0.0 0.1
13:19 11.5 5.2 65 1010.4 7.6 SW 12.1 0.0 0.1
13:20 11.5 5.2 65 1010.3 10.7 SW 12.1 0.0 0.1
13:21 11.5 5.2 65 1010.5 10.7 SW 12.1 0.0 0.1
13:35 10.4 4.1 65 1010.4 4.5 SW 11.4 0.0 0.1
13:36 10.4 4.1 65 1010.4 4.5 SW 11.4 0.0 0.1
14:05 10.9 4.6 65 1010.8 13.0 SW 13.6 0.0 0.1
14:15 10.5 4.2 65 1010.8 13.0 SW 13.6 0.0 0.1
14:16 10.5 4.2 65 1010.8 13.0 SW 13.6 0.0 0.1
14:17 10.7 4.4 65 1010.8 13.6 SW 13.6 0.0 0.1
14:18 10.7 4.4 65 1010.8 11.4 SW 13.6 0.0 0.1
14:19 10.8 4.5 65 1010.8 11.4 SW 13.6 0.0 0.1
14:39 10.0 3.7 65 1011.1 9.2 SW 14.5 0.0 0.1
14:40 9.9 3.6 65 1010.9 9.8 SSW 14.5 0.0 0.1
14:41 9.8 3.5 65 1010.9 9.2 W 14.5 0.0 0.1
15:40 10.0 3.7 65 1011.6 14.5 SW 19.0 0.0 0.1
15:41 9.8 3.5 65 1011.8 13.0 W 19.0 0.0 0.1
15:42 9.7 3.4 65 1011.7 13.0 SW 19.0 0.0 0.1
15:43 9.6 3.3 65 1011.6 11.4 SW 19.0 0.0 0.1
15:44 9.6 3.3 65 1011.9 9.8 SW 19.0 0.0 0.1
15:45 9.5 3.3 65 1011.5 7.6 WNW 19.0 0.0 0.1
15:46 9.4 3.2 65 1011.5 9.8 SW 19.0 0.0 0.1
13:45 10.8 4.7 66 1010.4 10.7 NW 10.7 0.0 0.1
13:46 10.8 4.7 66 1010.5 6.0 WSW 10.7 0.0 0.1
14:02 10.9 4.8 66 1010.6 11.4 SW 13.6 0.0 0.1
14:03 10.9 4.8 66 1010.6 12.1 SW 13.6 0.0 0.1
14:04 10.9 4.8 66 1010.7 12.1 WNW 13.6 0.0 0.1
14:42 9.7 3.7 66 1011.1 11.4 SW 12.1 0.0 0.1
14:43 9.7 3.7 66 1011.1 11.4 SW 12.1 0.0 0.1
15:37 10.2 4.1 66 1011.6 13.0 SW 19.0 0.0 0.1
15:38 10.1 4.0 66 1011.5 13.6 SW 19.0 0.0 0.1
15:39 10.1 4.0 66 1011.6 13.6 SW 19.0 0.0 0.1
15:47 9.4 3.4 66 1011.7 10.7 W 14.5 0.0 0.1
15:48 9.3 3.3 66 1011.8 9.8 SW 14.5 0.0 0.1
15:49 9.3 3.3 66 1011.7 13.0 W 14.5 0.0 0.1
15:50 9.2 3.2 66 1011.7 12.1 SW 13.0 0.0 0.1
15:51 9.2 3.2 66 1011.7 10.7 WSW 13.0 0.0 0.1
13:37 10.5 4.6 67 1010.5 6.9 S 11.4 0.0 0.1
13:38 10.6 4.7 67 1010.4 7.6 W 11.4 0.0 0.1
13:43 10.9 5.0 67 1010.5 8.3 NW 9.2 0.0 0.1
13:44 10.9 5.0 67 1010.5 9.2 SW 9.2 0.0 0.1
13:47 10.7 4.8 67 1010.5 7.6 WSW 10.7 0.0 0.1
13:48 10.7 4.8 67 1010.6 6.0 W 10.7 0.0 0.1
13:49 10.7 4.8 67 1010.6 8.3 SW 10.7 0.0 0.1
13:50 10.6 4.7 67 1010.6 8.3 W 10.7 0.0 0.1
13:51 10.5 4.6 67 1010.7 9.2 W 10.7 0.0 0.1
13:52 10.5 4.6 67 1010.5 8.3 W 10.7 0.0 0.1
13:54 10.4 4.5 67 1010.5 6.9 W 10.7 0.0 0.1
14:01 10.8 4.9 67 1010.8 11.4 SW 13.6 0.0 0.1
14:44 9.6 3.8 67 1010.9 12.1 SW 12.1 0.0 0.1
14:45 9.5 3.7 67 1011.0 12.1 W 12.1 0.0 0.1
15:35 10.3 4.4 67 1011.7 17.4 W 18.3 0.0 0.1
15:52 9.2 3.4 67 1011.7 11.4 SW 13.0 0.0 0.1
15:53 9.3 3.5 67 1011.6 10.7 SW 13.0 0.0 0.1
13:39 10.7 5.0 68 1010.5 7.6 SW 7.6 0.0 0.1
13:40 10.7 5.0 68 1010.5 6.0 SW 7.6 0.0 0.1
13:41 10.8 5.1 68 1010.5 9.2 W 9.2 0.0 0.1
13:42 10.9 5.2 68 1010.4 7.6 W 9.2 0.0 0.1
13:55 10.4 4.8 68 1010.8 6.0 W 10.7 0.0 0.1
13:56 10.4 4.8 68 1010.5 5.4 SW 9.2 0.0 0.1
14:46 9.5 3.9 68 1010.9 11.4 SW 12.1 0.0 0.1
14:47 9.4 3.8 68 1011.1 12.1 SW 12.1 0.0 0.1
14:48 9.4 3.8 68 1011.1 9.2 S 12.1 0.0 0.1
14:51 9.2 3.6 68 1011.3 8.3 SSW 16.8 0.0 0.1
14:52 9.2 3.6 68 1011.1 8.3 S 16.8 0.0 0.1
14:54 9.1 3.5 68 1011.2 8.3 S 16.8 0.0 0.1
14:55 9.1 3.5 68 1011.2 8.3 S 16.8 0.0 0.1
14:56 9.0 3.4 68 1011.2 9.2 SW 16.8 0.0 0.1
15:34 10.3 4.7 68 1011.5 17.4 SW 18.3 0.0 0.1
15:54 9.4 3.8 68 1011.5 9.2 W 13.0 0.0 0.1
16:00 9.5 3.9 68 1011.9 9.8 SW 13.6 0.0 0.1
16:01 9.4 3.8 68 1011.7 11.4 WSW 13.6 0.0 0.1
16:02 9.4 3.8 68 1011.8 8.3 SW 13.6 0.0 0.1
16:03 9.4 3.8 68 1011.8 8.3 W 13.6 0.0 0.1
16:04 9.3 3.7 68 1012.0 9.8 SW 13.6 0.0 0.1
16:05 9.2 3.6 68 1011.9 9.8 SW 13.6 0.0 0.1
16:06 9.2 3.6 68 1011.9 9.8 SW 13.6 0.0 0.1
11:47 10.6 5.2 69 1009.8 15.2 SW 15.2 0.0 0.1
11:48 10.5 5.1 69 1009.8 9.2 WSW 15.2 0.0 0.1
11:49 10.5 5.1 69 1009.9 9.2 W 15.2 0.0 0.1
11:50 10.4 5.0 69 1009.9 7.6 SW 15.2 0.0 0.1
11:51 10.4 5.0 69 1009.7 10.7 W 15.2 0.0 0.1
11:52 10.3 4.9 69 1009.9 9.8 W 15.2 0.0 0.1
11:53 10.3 4.9 69 1009.6 7.6 WSW 15.2 0.0 0.1
11:54 10.3 4.9 69 1009.9 6.9 WSW 15.2 0.0 0.1
11:55 10.4 5.0 69 1010.0 8.3 WSW 15.2 0.0 0.1
11:57 10.4 5.0 69 1009.8 9.8 W 11.4 0.0 0.1
11:58 10.5 5.1 69 1010.1 3.8 W 11.4 0.0 0.1
11:59 10.5 5.1 69 1010.0 8.3 SW 11.4 0.0 0.1
12:00 10.5 5.1 69 1010.0 10.7 WSW 11.4 0.0 0.1
12:01 10.4 5.0 69 1009.8 10.7 NW 10.7 0.0 0.1
12:02 10.4 5.0 69 1010.1 6.9 W 10.7 0.0 0.1
12:03 10.3 4.9 69 1010.0 8.3 SW 10.7 0.0 0.1
12:04 10.2 4.8 69 1010.0 6.0 W 10.7 0.0 0.1
12:05 10.1 4.7 69 1009.9 5.4 SW 10.7 0.0 0.1
12:06 10.1 4.7 69 1009.8 6.0 SW 10.7 0.0 0.1
12:07 10.0 4.6 69 1010.1 8.3 WSW 10.7 0.0 0.1
12:08 9.9 4.5 69 1010.0 6.9 SW 10.7 0.0 0.1
12:09 9.9 4.5 69 1010.0 6.9 WSW 10.7 0.0 0.1
12:27 10.0 4.6 69 1010.1 6.9 WSW 9.2 0.0 0.1
12:28 10.0 4.6 69 1010.3 5.4 SW 9.2 0.0 0.1
12:29 9.9 4.5 69 1010.3 7.6 SW 9.2 0.0 0.1
12:30 9.8 4.4 69 1010.2 6.9 W 9.2 0.0 0.1
12:31 9.7 4.3 69 1010.1 7.6 W 9.2 0.0 0.1
12:32 9.7 4.3 69 1010.1 5.4 SW 9.2 0.0 0.1
12:51 11.2 5.7 69 1010.3 9.2 WSW 13.6 0.0 0.1
12:52 11.2 5.7 69 1010.2 9.2 W 13.6 0.0 0.1
12:54 11.3 5.8 69 1010.3 9.2 W 13.6 0.0 0.1
12:55 11.3 5.8 69 1010.3 9.2 W 13.6 0.0 0.1
12:56 11.3 5.8 69 1010.4 8.3 NW 13.6 0.0 0.1
12:57 11.4 5.9 69 1010.3 8.3 W 13.6 0.0 0.1
12:58 11.4 5.9 69 1010.1 8.3 SW 13.6 0.0 0.1
12:59 11.5 6.0 69 1010.2 8.3 SW 11.4 0.0 0.1
13:00 11.5 6.0 69 1010.1 10.7 SW 10.7 0.0 0.1
13:01 11.5 6.0 69 1010.3 10.7 SW 10.7 0.0 0.1
13:02 11.5 6.0 69 1010.3 10.7 SW 10.7 0.0 0.1
13:03 11.5 6.0 69 1010.3 10.7 SW 10.7 0.0 0.1
13:04 11.5 6.0 69 1010.2 10.7 SW 10.7 0.0 0.1
13:05 11.5 6.0 69 1010.3 10.7 SW 10.7 0.0 0.1
13:57 10.5 5.1 69 1010.8 13.6 NW 13.6 0.0 0.1
13:58 10.6 5.2 69 1010.7 11.4 SW 13.6 0.0 0.1
13:59 10.7 5.2 69 1010.6 13.0 W 13.6 0.0 0.1
14:00 10.8 5.3 69 1010.5 10.7 SW 13.6 0.0 0.1
14:49 9.4 4.0 69 1011.2 13.0 SW 13.0 0.0 0.1
14:50 9.3 3.9 69 1011.2 15.2 WSW 16.8 0.0 0.1
14:57 9.0 3.6 69 1011.2 9.2 S 16.8 0.0 0.1
14:58 9.0 3.6 69 1011.2 8.3 S 16.8 0.0 0.1
14:59 8.9 3.5 69 1011.3 8.3 SW 16.8 0.0 0.1
15:00 8.9 3.5 69 1011.3 6.9 SW 16.8 0.0 0.1
15:01 8.9 3.5 69 1011.1 6.9 SW 15.2 0.0 0.1
15:02 8.9 3.5 69 1011.2 6.9 SW 11.4 0.0 0.1
15:03 8.9 3.5 69 1011.4 6.9 SW 11.4 0.0 0.1
15:04 8.9 3.5 69 1011.1 6.9 SW 11.4 0.0 0.1
15:05 8.9 3.5 69 1011.1 6.9 SW 11.4 0.0 0.1
15:18 9.2 3.8 69 1011.4 9.2 SW 14.5 0.0 0.1
15:19 9.2 3.8 69 1011.4 9.2 SW 14.5 0.0 0.1
15:20 9.2 3.8 69 1011.5 12.1 SW 14.5 0.0 0.1
15:21 9.2 3.8 69 1011.7 8.3 SW 14.5 0.0 0.1
15:30 10.2 4.8 69 1011.5 15.9 W 18.3 0.0 0.1
15:31 10.3 4.9 69 1011.5 11.4 SSW 18.3 0.0 0.1
15:32 10.3 4.9 69 1011.6 14.5 SSW 18.3 0.0 0.1
15:33 10.3 4.9 69 1011.6 16.8 SW 18.3 0.0 0.1
15:56 9.5 4.1 69 1011.6 11.4 SSW 13.0 0.0 0.1
15:57 9.5 4.1 69 1011.5 8.3 W 13.0 0.0 0.1
15:58 9.5 4.1 69 1011.7 8.3 SW 13.0 0.0 0.1
15:59 9.5 4.1 69 1011.6 13.6 SW 13.6 0.0 0.1
16:07 9.1 3.7 69 1011.7 14.5 S 14.5 0.0 0.1
16:08 9.1 3.7 69 1011.8 15.2 SSW 15.2 0.0 0.1
16:09 9.1 3.7 69 1011.9 12.1 SW 15.2 0.0 0.1
16:10 9.0 3.6 69 1012.0 10.7 SW 15.2 0.0 0.1
16:11 9.0 3.6 69 1011.9 13.0 SW 15.2 0.0 0.1
16:12 9.0 3.6 69 1011.8 15.2 SW 15.2 0.0 0.1
16:13 8.9 3.5 69 1012.1 18.3 SW 18.3 0.0 0.1
11:20 9.7 4.5 70 1009.4 7.6 W 11.4 0.0 0.1
11:21 9.6 4.4 70 1009.5 6.0 SW 11.4 0.0 0.1
11:22 9.5 4.3 70 1009.4 6.0 W 11.4 0.0 0.1
11:23 9.5 4.3 70 1009.3 6.0 SW 11.4 0.0 0.1
11:24 9.4 4.2 70 1009.3 5.4 SW 10.7 0.0 0.1
11:25 9.4 4.2 70 1009.4 5.4 W 9.2 0.0 0.1
11:26 9.4 4.2 70 1009.3 4.5 W 9.2 0.0 0.1
11:38 10.3 5.1 70 1009.7 7.6 W 9.8 0.0 0.1
11:39 10.3 5.1 70 1009.7 7.6 W 9.8 0.0 0.1
11:40 10.3 5.1 70 1009.7 3.8 W 9.8 0.0 0.1
11:41 10.4 5.2 70 1009.7 5.4 W 9.8 0.0 0.1
11:42 10.4 5.2 70 1009.8 12.1 SW 12.1 0.0 0.1
11:43 10.5 5.3 70 1009.7 12.1 SW 12.1 0.0 0.1
11:44 10.6 5.4 70 1009.7 9.2 W 12.1 0.0 0.1
11:45 10.6 5.4 70 1009.8 14.5 SW 14.5 0.0 0.1
11:46 10.6 5.4 70 1009.7 15.2 SW 15.2 0.0 0.1
12:10 10.0 4.8 70 1010.1 6.0 W 10.7 0.0 0.1
12:11 10.0 4.8 70 1010.1 6.0 SW 8.3 0.0 0.1
12:12 10.1 4.9 70 1010.1 7.6 SW 8.3 0.0 0.1
12:13 10.1 4.9 70 1010.0 8.3 SW 8.3 0.0 0.1
12:15 10.2 5.0 70 1010.0 5.4 SW 8.3 0.0 0.1
12:16 10.3 5.1 70 1010.1 5.4 NW 8.3 0.0 0.1
12:17 10.4 5.2 70 1010.1 4.5 W 8.3 0.0 0.1
12:22 10.6 5.4 70 1010.0 8.3 W 8.3 0.0 0.1
12:23 10.5 5.3 70 1010.1 6.9 W 8.3 0.0 0.1
12:24 10.4 5.2 70 1009.9 9.2 W 9.2 0.0 0.1
12:25 10.3 5.1 70 1010.2 9.2 WSW 9.2 0.0 0.1
12:26 10.2 5.0 70 1010.1 9.2 W 9.2 0.0 0.1
12:33 9.7 4.5 70 1010.2 5.4 W 9.2 0.0 0.1
12:35 9.9 4.7 70 1010.1 7.6 S 9.8 0.0 0.1
12:36 9.9 4.7 70 1010.2 6.9 W 9.8 0.0 0.1
12:37 10.0 4.8 70 1010.1 6.9 SW 9.8 0.0 0.1
12:47 11.0 5.7 70 1010.2 13.6 SW 13.6 0.0 0.1
12:48 11.1 5.8 70 1010.2 13.6 WSW 13.6 0.0 0.1
12:49 11.1 5.8 70 1010.2 11.4 SW 13.6 0.0 0.1
12:50 11.2 5.9 70 1010.1 9.2 SSW 13.6 0.0 0.1
15:06 8.7 3.5 70 1011.3 5.4 SW 11.4 0.0 0.1
15:07 8.8 3.6 70 1011.1 4.5 SW 8.3 0.0 0.1
15:08 8.9 3.7 70 1011.1 6.0 SSW 8.3 0.0 0.1
15:14 9.4 4.2 70 1011.5 12.1 SW 14.5 0.0 0.1
15:15 9.4 4.2 70 1011.2 12.1 W 14.5 0.0 0.1
15:16 9.3 4.1 70 1011.4 11.4 SW 14.5 0.0 0.1
15:22 9.3 4.1 70 1011.5 8.3 SW 14.5 0.0 0.1
15:23 9.4 4.2 70 1011.7 11.4 SW 13.6 0.0 0.1
15:24 9.5 4.3 70 1011.5 10.7 WSW 13.0 0.0 0.1
15:25 9.6 4.4 70 1011.5 15.2 SW 15.2 0.0 0.1
15:26 9.7 4.5 70 1011.6 15.2 SW 15.2 0.0 0.1
15:27 9.8 4.6 70 1011.4 12.1 SW 15.2 0.0 0.1
15:28 9.9 4.7 70 1011.4 12.1 W 15.2 0.0 0.1
15:29 10.1 4.9 70 1011.5 16.8 W 16.8 0.0 0.1
16:15 8.9 3.7 70 1012.1 14.5 SW 18.3 0.0 0.1
16:16 8.9 3.7 70 1012.1 14.5 SW 18.3 0.0 0.1
16:17 8.9 3.7 70 1012.4 14.5 S 18.3 0.0 0.1
16:18 9.0 3.8 70 1012.0 14.5 SW 18.3 0.0 0.1
11:16 10.1 5.1 71 1009.2 9.2 SW 11.4 0.0 0.1
11:17 10.0 5.0 71 1009.4 6.0 WSW 11.4 0.0 0.1
11:19 9.8 4.8 71 1009.3 6.9 SW 11.4 0.0 0.1
11:27 9.5 4.5 71 1009.4 6.0 W 7.6 0.0 0.1
11:28 9.6 4.6 71 1009.5 6.9 SW 7.6 0.0 0.1
11:29 9.6 4.6 71 1009.6 6.9 SW 7.6 0.0 0.1
11:30 9.8 4.8 71 1009.6 6.9 NW 9.8 0.0 0.1
11:31 9.9 4.9 71 1009.5 6.0 W 9.8 0.0 0.1
11:32 9.9 4.9 71 1009.6 6.9 W 9.8 0.0 0.1
11:33 10.0 5.0 71 1009.5 9.8 SSW 9.8 0.0 0.1
11:34 10.1 5.1 71 1009.5 7.6 W 9.8 0.0 0.1
11:35 10.1 5.1 71 1009.5 6.0 NW 9.8 0.0 0.1
11:36 10.2 5.2 71 1009.7 7.6 NW 9.8 0.0 0.1
12:18 10.4 5.4 71 1010.0 5.4 SW 8.3 0.0 0.1
12:19 10.5 5.5 71 1010.0 5.4 SW 8.3 0.0 0.1
12:20 10.6 5.6 71 1010.0 8.3 SW 8.3 0.0 0.1
12:21 10.6 5.6 71 1010.2 8.3 WSW 8.3 0.0 0.1
12:38 10.1 5.1 71 1010.1 9.2 S 9.8 0.0 0.1
12:39 10.1 5.1 71 1010.2 6.9 SW 9.8 0.0 0.1
12:40 10.3 5.3 71 1010.1 8.3 SW 9.8 0.0 0.1
12:41 10.4 5.4 71 1009.9 7.6 S 9.8 0.0 0.1
12:42 10.5 5.5 71 1010.2 8.3 SSW 9.8 0.0 0.1
12:43 10.6 5.6 71 1010.3 8.3 SW 9.8 0.0 0.1
12:44 10.7 5.7 71 1010.2 9.2 SW 9.8 0.0 0.1
12:45 10.8 5.8 71 1010.1 9.2 SW 9.8 0.0 0.1
12:46 11.0 5.9 71 1010.1 13.0 WSW 13.0 0.0 0.1
15:09 8.9 3.9 71 1011.2 9.2 SW 9.2 0.0 0.1
15:10 9.1 4.1 71 1011.2 9.2 SW 9.2 0.0 0.1
15:12 9.3 4.3 71 1011.3 14.5 SW 14.5 0.0 0.1
15:13 9.3 4.3 71 1011.4 13.6 WSW 14.5 0.0 0.1
16:19 9.0 4.0 71 1012.1 13.6 SW 18.3 0.0 0.1
16:20 9.0 4.0 71 1012.1 13.6 SW 18.3 0.0 0.1
11:06 9.9 5.1 72 1008.9 4.5 WSW 10.7 0.0 0.1
11:07 9.9 5.1 72 1009.2 6.9 W 10.7 0.0 0.1
11:08 10.0 5.2 72 1008.9 4.5 W 10.7 0.0 0.1
11:09 10.0 5.2 72 1009.3 6.9 SW 10.7 0.0 0.1
11:10 10.1 5.3 72 1009.2 6.9 W 10.7 0.0 0.1
11:11 10.2 5.4 72 1009.1 7.6 SW 10.7 0.0 0.1
11:12 10.2 5.4 72 1009.2 7.6 SW 10.7 0.0 0.1
11:13 10.2 5.4 72 1009.1 11.4 SW 11.4 0.0 0.1
11:14 10.2 5.4 72 1009.1 9.2 W 11.4 0.0 0.1
11:15 10.2 5.4 72 1009.4 9.2 SW 11.4 0.0 0.1
16:21 9.0 4.2 72 1012.0 7.6 SW 18.3 0.0 0.1
16:22 9.1 4.3 72 1012.0 8.3 S 18.3 0.0 0.1
16:23 9.1 4.3 72 1012.0 10.7 SW 18.3 0.0 0.1
16:24 9.1 4.3 72 1012.0 10.7 SSW 15.2 0.0 0.1
16:37 9.4 4.6 72 1012.1 7.6 SSW 10.7 0.0 0.1
16:38 9.4 4.6 72 1012.2 7.6 W 9.8 0.0 0.1
16:39 9.4 4.6 72 1011.9 5.4 SW 7.6 0.0 0.1
16:40 9.4 4.6 72 1012.0 3.8 W 7.6 0.0 0.1
16:41 9.4 4.6 72 1012.2 4.5 SW 7.6 0.0 0.1
16:42 9.4 4.6 72 1012.1 4.5 SW 7.6 0.0 0.1
16:43 9.4 4.6 72 1012.2 6.0 SW 7.6 0.0 0.1
16:44 9.4 4.6 72 1012.1 6.9 SW 7.6 0.0 0.1
16:45 9.4 4.6 72 1012.0 6.0 SW 7.6 0.0 0.1
16:46 9.3 4.5 72 1012.0 6.0 SW 7.6 0.0 0.1
16:47 9.3 4.5 72 1012.2 5.4 SSW 7.6 0.0 0.1
16:48 9.3 4.5 72 1012.2 7.6 SSW 7.6 0.0 0.1
16:49 9.3 4.5 72 1011.9 7.6 SW 7.6 0.0 0.1
16:50 9.2 4.4 72 1012.0 4.5 S 7.6 0.0 0.1
16:51 9.2 4.4 72 1012.1 3.8 SW 7.6 0.0 0.1
10:52 9.5 4.9 73 1008.7 6.0 W 9.8 0.0 0.1
10:53 9.5 4.9 73 1009.0 6.0 W 9.8 0.0 0.1
10:55 9.6 5.0 73 1008.8 6.0 W 9.8 0.0 0.1
10:56 9.6 5.0 73 1008.9 9.8 W 9.8 0.0 0.1
10:57 9.6 5.0 73 1008.9 8.3 SW 9.8 0.0 0.1
10:58 9.6 5.0 73 1008.9 8.3 SW 9.8 0.0 0.1
10:59 9.7 5.1 73 1009.2 10.7 SW 10.7 0.0 0.1
11:00 9.7 5.1 73 1009.0 10.7 W 10.7 0.0 0.1
11:01 9.7 5.1 73 1009.2 10.7 W 10.7 0.0 0.1
11:02 9.7 5.1 73 1009.0 10.7 W 10.7 0.0 0.1
11:03 9.7 5.1 73 1009.1 10.7 W 10.7 0.0 0.1
11:04 9.7 5.1 73 1009.2 10.7 W 10.7 0.0 0.1
11:05 9.7 5.1 73 1009.3 10.7 W 10.7 0.0 0.1
16:25 9.2 4.6 73 1012.0 11.4 SW 14.5 0.0 0.1
16:26 9.2 4.6 73 1012.0 8.3 SW 14.5 0.0 0.1
16:27 9.3 4.7 73 1012.2 10.7 SW 14.5 0.0 0.1
16:28 9.3 4.7 73 1011.9 9.8 SW 13.6 0.0 0.1
16:29 9.3 4.7 73 1012.0 6.0 S 13.6 0.0 0.1
16:30 9.3 4.7 73 1012.0 6.0 SW 11.4 0.0 0.1
16:31 9.3 4.7 73 1012.3 5.4 W 11.4 0.0 0.1
16:32 9.3 4.7 73 1012.1 5.4 S 11.4 0.0 0.1
16:34 9.4 4.8 73 1012.1 6.0 SW 11.4 0.0 0.1
16:35 9.4 4.8 73 1012.1 6.0 SW 11.4 0.0 0.1
16:36 9.4 4.8 73 1012.0 6.9 SW 11.4 0.0 0.1
16:53 9.2 4.6 73 1012.0 5.4 S 7.6 0.0 0.1
16:54 9.1 4.5 73 1012.1 5.4 SW 7.6 0.0 0.1
16:55 9.1 4.5 73 1012.1 4.5 SSW 7.6 0.0 0.1
16:56 9.1 4.5 73 1012.0 3.8 S 7.6 0.0 0.1
16:57 9.1 4.5 73 1012.2 3.1 W 7.6 0.0 0.1
16:58 9.0 4.4 73 1012.1 3.8 W 7.6 0.0 0.1
16:59 9.0 4.4 73 1012.1 3.8 WSW 7.6 0.0 0.1
17:00 9.0 4.4 73 1012.0 3.8 SW 5.4 0.0 0.1
17:01 9.0 4.4 73 1012.0 3.8 SW 5.4 0.0 0.1
17:02 9.0 4.4 73 1012.0 3.8 SW 5.4 0.0 0.1
17:03 9.0 4.4 73 1012.2 3.8 SW 5.4 0.0 0.1
17:04 9.0 4.4 73 1012.1 3.8 SW 4.5 0.0 0.1
17:05 9.0 4.4 73 1012.2 3.8 SW 3.8 0.0 0.1
17:06 8.4 3.8 73 1012.1 4.5 SW 4.5 0.0 0.1
17:07 8.4 3.8 73 1012.3 2.2 SW 4.5 0.0 0.1
17:08 8.3 3.7 73 1012.1 3.8 S 4.5 0.0 0.1
17:09 8.2 3.7 73 1012.3 3.8 SW 4.5 0.0 0.1
17:10 8.1 3.6 73 1012.1 3.8 SW 4.5 0.0 0.1
17:12 8.0 3.5 73 1012.1 4.5 SW 4.5 0.0 0.1
17:13 8.0 3.5 73 1012.2 4.5 SW 4.5 0.0 0.1
17:14 7.9 3.4 73 1012.3 5.4 SW 5.4 0.0 0.1
17:15 7.8 3.3 73 1012.1 6.9 SSW 6.9 0.0 0.1
17:16 7.8 3.3 73 1012.1 6.9 SSW 6.9 0.0 0.1
17:17 7.7 3.2 73 1012.2 6.0 SW 6.9 0.0 0.1
17:18 7.7 3.2 73 1012.1 5.4 SW 6.9 0.0 0.1
17:19 7.7 3.2 73 1012.4 5.4 S 6.9 0.0 0.1
17:20 7.6 3.1 73 1012.0 3.8 SW 6.9 0.0 0.1
17:21 7.6 3.1 73 1012.3 3.8 W 6.9 0.0 0.1
17:22 7.5 3.0 73 1012.3 3.1 SSW 6.9 0.0 0.1
17:23 7.5 3.0 73 1012.1 3.1 S 6.9 0.0 0.1
10:49 9.3 4.9 74 1008.8 6.9 W 9.8 0.0 0.1
10:50 9.4 5.0 74 1009.0 5.4 SW 9.8 0.0 0.1
10:51 9.4 5.0 74 1008.7 5.4 NW 9.8 0.0 0.1
10:47 9.3 5.1 75 1008.7 9.8 NW 9.8 0.0 0.1
10:48 9.3 5.1 75 1008.9 9.8 NW 9.8 0.0 0.1
10:45 9.3 5.3 76 1008.8 9.8 WSW 10.7 0.0 0.1
10:46 9.3 5.3 76 1008.7 9.2 NW 9.8 0.0 0.1
10:41 9.1 5.3 77 1009.0 6.0 WSW 10.7 0.0 0.1
10:42 9.2 5.4 77 1008.5 6.9 W 10.7 0.0 0.1
10:43 9.2 5.4 77 1008.7 6.9 SW 10.7 0.0 0.1
10:44 9.3 5.5 77 1008.7 8.3 SW 10.7 0.0 0.1
17:24 7.4 3.6 77 1012.4 6.0 SW 6.9 0.0 0.1
17:25 7.4 3.6 77 1012.3 4.5 SW 6.9 0.0 0.1
10:39 9.1 5.5 78 1008.7 9.2 W 10.7 0.0 0.1
10:40 9.1 5.5 78 1008.9 6.0 W 10.7 0.0 0.1
17:26 7.3 3.7 78 1012.2 3.1 S 6.0 0.0 0.1
17:27 7.3 3.7 78 1012.1 1.6 SSW 6.0 0.0 0.1
17:28 7.3 3.7 78 1012.3 2.2 W 6.0 0.0 0.1
17:29 7.3 3.7 78 1012.1 1.6 SW 6.0 0.0 0.1
17:30 7.2 3.6 78 1012.1 2.2 W 6.0 0.0 0.1
17:31 7.2 3.6 78 1011.9 2.2 WSW 6.0 0.0 0.1
17:32 7.2 3.6 78 1011.9 2.2 SW 6.0 0.0 0.1
17:34 7.2 3.6 78 1012.0 2.2 WSW 6.0 0.0 0.1
17:35 7.2 3.6 78 1012.0 2.2 WSW 4.5 0.0 0.1
10:28 8.6 5.2 79 1008.6 3.8 S 9.2 0.0 0.1
10:29 8.6 5.2 79 1008.5 5.4 NW 9.2 0.0 0.1
10:30 8.7 5.3 79 1008.8 5.4 NNW 9.2 0.0 0.1
10:31 8.8 5.4 79 1008.8 6.0 S 9.2 0.0 0.1
10:32 8.8 5.4 79 1008.6 7.6 W 9.2 0.0 0.1
10:33 8.8 5.4 79 1009.0 4.5 WSW 9.2 0.0 0.1
10:34 8.9 5.5 79 1008.8 9.8 WSW 9.8 0.0 0.1
10:36 9.0 5.6 79 1008.9 7.6 W 10.7 0.0 0.1
10:37 9.0 5.6 79 1008.8 6.0 W 10.7 0.0 0.1
10:38 9.0 5.6 79 1008.7 9.2 SW 10.7 0.0 0.1
17:36 7.2 3.8 79 1012.2 3.8 W 3.8 0.0 0.1
17:37 7.2 3.8 79 1012.1 4.5 S 4.5 0.0 0.1
17:38 7.2 3.8 79 1012.2 6.0 WSW 6.0 0.0 0.1
17:39 7.2 3.8 79 1012.3 5.4 SSW 6.0 0.0 0.1
17:40 7.2 3.8 79 1012.5 5.4 SW 6.0 0.0 0.1
17:41 7.2 3.8 79 1012.2 9.2 SW 9.2 0.0 0.1
17:42 7.2 3.8 79 1012.1 9.2 W 9.2 0.0 0.1
17:43 7.2 3.8 79 1012.3 12.1 S 12.1 0.0 0.1
17:44 7.2 3.8 79 1012.2 9.8 SW 12.1 0.0 0.1
23:06 7.5 4.1 79 1013.5 6.9 S 10.7 0.0 0.1
23:07 7.5 4.1 79 1013.3 6.9 S 10.7 0.0 0.1
23:08 7.5 4.1 79 1013.2 6.9 SW 10.7 0.0 0.1
23:09 7.5 4.1 79 1013.6 9.2 SW 9.2 0.0 0.1
23:10 7.5 4.1 79 1013.6 7.6 SW 9.2 0.0 0.1
10:17 7.9 4.7 80 1008.8 5.4 W 9.8 0.0 0.1
10:18 8.0 4.8 80 1008.5 6.0 W 9.8 0.0 0.1
10:19 8.0 4.8 80 1008.8 7.6 SW 9.8 0.0 0.1
10:20 8.1 4.9 80 1008.7 8.3 W 9.2 0.0 0.1
10:21 8.2 5.0 80 1008.5 7.6 NNW 9.2 0.0 0.1
10:22 8.2 5.0 80 1008.8 6.9 ENE 9.2 0.0 0.1
10:23 8.3 5.1 80 1008.6 6.9 W 8.3 0.0 0.1
10:24 8.4 5.2 80 1008.7 7.6 S 8.3 0.0 0.1
10:25 8.4 5.2 80 1008.5 6.9 SW 8.3 0.0 0.1
10:26 8.5 5.2 80 1008.6 9.2 W 9.2 0.0 0.1
10:27 8.5 5.2 80 1008.8 9.2 W 9.2 0.0 0.1
17:45 7.2 4.0 80 1012.3 11.4 SW 12.1 0.0 0.1
17:46 7.2 4.0 80 1012.4 7.6 WSW 12.1 0.0 0.1
17:47 7.2 4.0 80 1012.4 9.8 SW 12.1 0.0 0.1
17:48 7.2 4.0 80 1012.3 6.9 SSW 12.1 0.0 0.1
17:49 7.2 4.0 80 1012.1 6.0 SW 12.1 0.0 0.1
22:55 7.5 4.3 80 1013.6 9.8 S 13.0 0.0 0.1
22:56 7.5 4.3 80 1013.6 9.8 SW 13.0 0.0 0.1
22:57 7.5 4.3 80 1013.5 9.2 S 10.7 0.0 0.1
22:58 7.5 4.3 80 1013.4 9.2 SW 10.7 0.0 0.1
22:59 7.5 4.3 80 1013.4 9.2 SW 10.7 0.0 0.1
23:00 7.5 4.3 80 1013.5 9.2 SW 10.7 0.0 0.1
23:01 7.5 4.3 80 1013.7 9.2 SW 10.7 0.0 0.1
23:02 7.5 4.3 80 1013.6 9.2 SW 10.7 0.0 0.1
23:03 7.5 4.3 80 1013.6 9.2 SW 10.7 0.0 0.1
23:05 7.5 4.3 80 1013.5 9.2 SW 10.7 0.0 0.1
23:11 7.5 4.3 80 1013.6 9.8 SW 9.8 0.0 0.1
23:12 7.6 4.4 80 1013.4 5.4 SW 9.8 0.0 0.1
23:13 7.5 4.3 80 1013.5 6.9 S 9.8 0.0 0.1
23:14 7.5 4.3 80 1013.4 8.3 S 9.8 0.0 0.1
23:15 7.5 4.3 80 1013.4 8.3 S 9.8 0.0 0.1
23:16 7.6 4.4 80 1013.5 8.3 SE 9.8 0.0 0.1
23:17 7.6 4.4 80 1013.5 7.6 SW 9.8 0.0 0.1
23:18 7.6 4.4 80 1013.3 9.8 S 9.8 0.0 0.1
23:19 7.6 4.4 80 1013.5 10.7 SW 10.7 0.0 0.1
23:20 7.6 4.4 80 1013.3 10.7 SW 10.7 0.0 0.1
23:21 7.6 4.4 80 1013.4 9.2 SW 10.7 0.0 0.1
23:22 7.6 4.4 80 1013.4 6.9 SW 10.7 0.0 0.1
23:23 7.6 4.4 80 1013.6 6.9 WSW 10.7 0.0 0.1
23:24 7.6 4.4 80 1013.5 7.6 SW 10.7 0.0 0.1
23:25 7.6 4.4 80 1013.7 9.8 SW 10.7 0.0 0.1
23:26 7.6 4.4 80 1013.5 6.9 SW 10.7 0.0 0.1
23:27 7.6 4.4 80 1013.4 6.0 S 10.7 0.0 0.1
23:28 7.6 4.4 80 1013.5 6.9 SW 10.7 0.0 0.1
10:10 7.5 4.5 81 1008.6 6.0 W 9.8 0.0 0.1
10:11 7.5 4.5 81 1008.7 6.0 W 9.8 0.0 0.1
10:12 7.6 4.6 81 1008.6 9.2 W 9.8 0.0 0.1
10:13 7.6 4.6 81 1008.6 5.4 WSW 9.8 0.0 0.1
10:14 7.7 4.6 81 1008.4 4.5 SW 9.8 0.0 0.1
10:15 7.8 4.7 81 1008.5 6.0 W 9.8 0.0 0.1
17:50 7.2 4.2 81 1012.3 7.6 SW 12.1 0.0 0.1
17:51 7.2 4.2 81 1012.4 6.0 SSW 12.1 0.0 0.1
17:53 7.2 4.2 81 1012.1 7.6 SW 11.4 0.0 0.1
17:54 7.2 4.2 81 1012.4 6.0 SW 11.4 0.0 0.1
17:55 7.2 4.2 81 1012.1 7.6 W 11.4 0.0 0.1
17:56 7.2 4.2 81 1012.2 7.6 SW 9.8 0.0 0.1
23:30 7.5 4.5 81 1013.4 6.0 SW 9.8 0.0 0.1
23:31 7.5 4.5 81 1013.4 6.0 SW 9.8 0.0 0.1
23:32 7.5 4.5 81 1013.4 4.5 WSW 9.8 0.0 0.1
23:33 7.5 4.5 81 1013.6 6.0 SW 9.8 0.0 0.1
23:34 7.5 4.5 81 1013.5 6.0 SW 9.8 0.0 0.1
23:35 7.5 4.5 81 1013.5 4.5 S 9.8 0.0 0.1
23:36 7.5 4.5 81 1013.4 4.5 S 7.6 0.0 0.1
23:37 7.5 4.5 81 1013.4 8.3 S 8.3 0.0 0.1
23:38 7.5 4.5 81 1013.4 9.8 SW 9.8 0.0 0.1
23:39 7.5 4.5 81 1013.4 12.1 SW 12.1 0.8 0.1
23:40 7.5 4.5 81 1013.5 13.0 SW 13.0 2.3 0.3
17:57 7.2 4.3 82 1012.4 5.4 SW 9.8 0.0 0.1
17:58 7.2 4.3 82 1012.3 5.4 SW 7.6 0.0 0.1
17:59 7.2 4.3 82 1012.2 4.5 SW 7.6 0.0 0.1
18:00 7.2 4.3 82 1012.4 5.4 W 7.6 0.0 0.1
18:01 7.2 4.3 82 1012.3 6.9 SW 7.6 0.0 0.1
18:02 7.2 4.3 82 1012.2 6.9 SW 7.6 0.0 0.1
18:03 7.2 4.3 82 1012.6 5.4 SW 7.6 0.0 0.1
18:04 7.2 4.3 82 1012.4 5.4 SSW 7.6 0.0 0.1
18:05 7.2 4.3 82 1012.3 5.4 SW 7.6 0.0 0.1
18:06 7.2 4.3 82 1012.3 3.8 SSW 7.6 0.0 0.1
18:07 7.2 4.5 83 1012.3 3.1 SSW 6.9 0.0 0.1
18:08 7.1 4.4 83 1012.3 3.1 SW 6.9 0.0 0.1
18:09 7.1 4.4 83 1012.4 3.1 SW 6.9 0.0 0.1
18:10 7.1 4.4 83 1012.3 3.8 S 6.9 0.0 0.1
18:12 7.1 4.4 83 1012.3 3.8 SSE 5.4 0.0 0.1
18:13 7.1 4.4 83 1012.4 3.8 SW 5.4 0.0 0.1
18:14 7.0 4.3 83 1012.4 3.1 S 5.4 0.0 0.1
18:15 7.0 4.3 83 1012.3 3.1 S 5.4 0.0 0.1
18:16 7.0 4.3 83 1012.3 3.8 S 5.4 0.0 0.1
18:17 7.0 4.3 83 1012.3 3.1 SE 4.5 0.0 0.1
18:18 6.9 4.2 83 1012.5 3.1 SW 4.5 0.0 0.1
18:19 6.9 4.2 83 1012.5 3.8 SW 4.5 0.0 0.1
18:20 6.9 4.2 83 1012.4 3.1 SW 4.5 0.0 0.1
18:21 6.9 4.2 83 1012.4 2.2 SW 4.5 0.0 0.1
18:22 6.9 4.2 83 1012.4 2.2 SSW 4.5 0.0 0.1
18:23 6.8 4.1 83 1012.6 3.8 SW 4.5 0.0 0.1
18:24 6.8 4.1 83 1012.5 4.5 S 4.5 0.0 0.1
18:25 6.8 4.1 83 1012.5 3.1 SW 4.5 0.0 0.1
18:26 6.7 4.0 83 1012.4 3.1 SW 4.5 0.0 0.1
18:27 6.7 4.0 83 1012.5 3.1 SW 4.5 0.0 0.1
18:28 6.7 4.0 83 1012.5 2.2 SW 4.5 0.0 0.1
18:29 6.7 4.0 83 1012.3 2.2 SW 4.5 0.0 0.1
18:31 6.6 3.9 83 1012.5 1.6 S 4.5 0.0 0.1
18:32 6.6 3.9 83 1012.5 1.6 S 4.5 0.0 0.1
18:33 6.5 3.8 83 1012.6 1.6 WSW 4.5 0.0 0.1
18:34 6.5 3.8 83 1012.7 1.6 SW 4.5 0.0 0.1
18:35 6.5 3.8 83 1012.6 1.6 S 3.1 0.0 0.1
18:36 6.5 3.8 83 1012.6 1.6 S 3.1 0.0 0.1
18:37 6.4 3.7 83 1012.7 1.6 S 3.1 0.0 0.1
18:38 6.4 3.7 83 1012.6 1.6 S 2.2 0.0 0.1
18:39 6.4 3.7 83 1012.5 1.6 S 2.2 0.0 0.1
18:40 6.4 3.7 83 1012.7 1.6 S 2.2 0.0 0.1
18:41 6.4 3.7 83 1012.5 1.6 S 2.2 0.0 0.1
18:42 6.3 3.8 84 1012.7 2.2 S 2.2 0.0 0.1
18:43 6.3 3.8 84 1012.6 3.1 S 3.1 0.0 0.1
18:44 6.3 3.8 84 1012.3 3.1 S 3.1 0.0 0.1
18:45 6.3 3.8 84 1012.5 3.1 S 3.1 0.0 0.1
18:46 6.3 3.8 84 1012.4 3.1 W 6.0 0.0 0.1
18:47 6.3 3.8 84 1012.4 3.1 W 6.0 0.0 0.1
18:48 6.2 3.7 84 1012.5 1.6 W 6.0 0.0 0.1
18:50 6.2 3.7 84 1012.4 3.8 SW 6.0 0.0 0.1
18:51 6.2 3.7 84 1012.4 3.8 SW 6.0 0.0 0.1
18:52 6.2 3.7 84 1012.4 3.1 S 6.0 0.0 0.1
18:53 6.1 3.6 84 1012.5 2.2 S 6.0 0.0 0.1
18:54 6.1 3.6 84 1012.4 2.2 S 6.0 0.0 0.1
18:55 6.1 3.6 84 1012.4 3.1 SSW 6.0 0.0 0.1
18:56 6.1 3.6 84 1012.3 3.1 SSW 6.0 0.0 0.1
18:57 6.1 3.6 84 1012.5 2.2 SW 3.8 0.0 0.1
18:58 6.0 3.5 84 1012.4 2.2 SW 3.8 0.0 0.1
18:59 6.0 3.5 84 1012.3 2.2 SW 3.8 0.0 0.1
19:00 6.0 3.5 84 1012.4 2.2 SW 3.8 0.0 0.1
19:01 6.0 3.5 84 1012.6 2.2 SW 3.1 0.0 0.1
19:02 6.0 3.5 84 1012.6 2.2 SW 3.1 0.0 0.1
19:03 6.0 3.5 84 1012.5 2.2 SW 3.1 0.0 0.1
19:04 6.0 3.5 84 1012.4 2.2 SW 3.1 0.0 0.1
19:05 6.0 3.5 84 1012.6 2.2 SW 3.1 0.0 0.1
19:06 5.9 3.4 84 1012.5 0.7 SW 2.2 0.0 0.1
19:07 5.9 3.4 84 1012.7 1.6 S 2.2 0.0 0.1
19:09 5.9 3.4 84 1012.5 2.2 S 2.2 0.0 0.1
19:10 5.9 3.4 84 1012.5 2.2 SE 2.2 0.0 0.1
19:11 5.9 3.4 84 1012.7 2.2 S 2.2 0.0 0.1
19:12 5.9 3.4 84 1012.6 2.2 S 2.2 0.0 0.1
19:13 5.9 3.4 84 1012.7 2.2 S 2.2 0.0 0.1
19:14 5.9 3.4 84 1012.6 2.2 S 2.2 0.0 0.1
19:15 5.8 3.3 84 1012.8 2.2 S 2.2 0.0 0.1
19:16 5.8 3.3 84 1012.6 2.2 S 2.2 0.0 0.1
19:18 5.8 3.3 84 1012.9 3.1 S 3.1 0.0 0.1
19:19 5.8 3.3 84 1012.9 3.1 S 3.1 0.0 0.1
19:20 5.8 3.5 85 1012.8 3.1 SW 3.1 0.0 0.1
19:21 5.8 3.5 85 1012.7 2.2 S 3.1 0.0 0.1
19:22 5.7 3.4 85 1012.6 2.2 SE 3.1 0.0 0.1
19:23 5.7 3.4 85 1012.7 2.2 SE 3.1 0.0 0.1
19:24 5.7 3.4 85 1012.8 2.2 SW 3.1 0.0 0.1
19:25 5.7 3.4 85 1012.9 3.1 SE 3.1 0.0 0.1
19:26 5.7 3.4 85 1012.8 3.1 S 3.1 0.0 0.1
19:27 5.7 3.4 85 1012.7 3.1 S 3.1 0.0 0.1
19:28 5.7 3.4 85 1012.7 3.1 S 3.1 0.0 0.1
19:29 5.7 3.4 85 1012.7 2.2 S 3.1 0.0 0.1
19:30 5.7 3.4 85 1013.0 2.2 S 3.1 0.0 0.1
22:53 7.4 5.0 85 1013.5 8.3 SW 13.6 0.0 0.1
22:54 7.4 5.0 85 1013.5 9.8 SW 13.6 0.0 0.1
19:31 5.7 3.5 86 1013.0 2.2 S 3.1 0.0 0.1
19:32 5.7 3.5 86 1012.8 2.2 S 3.1 0.0 0.1
19:33 5.7 3.5 86 1012.7 2.2 SW 3.1 0.0 0.1
19:34 5.7 3.5 86 1012.9 2.2 S 3.1 0.0 0.1
19:35 5.7 3.5 86 1012.9 2.2 S 3.1 0.0 0.1
19:36 5.7 3.5 86 1012.9 2.2 S 3.1 0.0 0.1
19:38 5.7 3.5 86 1012.9 2.2 S 3.1 0.0 0.1
19:39 5.7 3.5 86 1012.9 2.2 S 2.2 0.0 0.1
19:40 5.7 3.5 86 1013.2 2.2 S 2.2 0.0 0.1
19:41 5.7 3.5 86 1013.0 3.1 SW 3.1 0.0 0.1
19:42 5.6 3.4 86 1013.3 2.2 S 3.1 0.0 0.1
19:43 5.6 3.4 86 1012.9 3.1 SE 3.1 0.0 0.1
19:44 5.6 3.4 86 1013.0 3.1 SW 3.1 0.0 0.1
19:45 5.6 3.4 86 1012.9 2.2 SE 3.1 0.0 0.1
19:46 5.6 3.4 86 1012.9 3.1 S 3.1 0.0 0.1
19:47 5.6 3.4 86 1013.0 2.2 SE 3.1 0.0 0.1
19:48 5.6 3.4 86 1013.0 2.2 S 3.1 0.0 0.1
19:49 5.6 3.4 86 1013.2 3.1 S 3.1 0.0 0.1
22:49 7.4 5.2 86 1013.6 10.7 S 13.6 0.0 0.1
22:50 7.4 5.2 86 1013.6 8.3 S 13.6 0.0 0.1
22:51 7.4 5.2 86 1013.8 9.8 SW 13.6 0.0 0.1
22:52 7.4 5.2 86 1013.5 6.9 SSW 13.6 0.0 0.1
19:50 5.6 3.6 87 1013.1 3.1 S 3.1 0.0 0.1
19:51 5.6 3.6 87 1013.0 3.8 S 3.8 0.0 0.1
19:52 5.6 3.6 87 1013.0 3.1 S 3.8 0.0 0.1
19:53 5.6 3.6 87 1013.0 3.8 S 3.8 0.0 0.1
19:54 5.7 3.7 87 1012.9 3.8 S 3.8 0.0 0.1
19:56 5.7 3.7 87 1013.2 3.1 S 3.8 0.0 0.1
19:57 5.7 3.7 87 1013.1 3.1 SSW 3.8 0.0 0.1
19:58 5.7 3.7 87 1013.3 3.1 SW 3.8 0.0 0.1
19:59 5.7 3.7 87 1013.1 2.2 SW 3.8 0.0 0.1
22:48 7.4 5.4 87 1013.4 9.8 SW 13.6 0.0 0.1
10:06 7.2 5.3 88 1008.4 5.4 SW 9.2 0.0 0.1
10:07 7.3 5.4 88 1008.3 5.4 WSW 9.2 0.0 0.1
10:08 7.3 5.4 88 1008.3 5.4 NW 9.2 0.0 0.1
10:09 7.4 5.5 88 1008.5 9.8 NW 9.8 0.0 0.1
20:00 5.7 3.9 88 1013.3 2.2 SW 3.8 0.0 0.1
20:01 5.7 3.9 88 1013.1 2.2 SSW 3.8 0.0 0.1
20:02 5.8 4.0 88 1013.1 9.8 SW 9.8 0.0 0.1
20:03 5.8 4.0 88 1013.0 9.8 SSW 9.8 0.0 0.1
20:04 5.8 4.0 88 1012.9 4.5 S 9.8 0.0 0.1
20:05 5.9 4.1 88 1013.2 7.6 SW 9.8 0.0 0.1
21:25 5.9 4.1 88 1013.5 3.1 SW 4.5 0.0 0.1
21:26 5.9 4.1 88 1013.4 3.8 S 4.5 0.0 0.1
21:29 5.9 4.1 88 1013.4 3.8 S 4.5 0.0 0.1
21:30 5.9 4.1 88 1013.6 3.8 SW 4.5 0.0 0.1
21:31 5.9 4.1 88 1013.3 3.8 S 4.5 0.0 0.1
21:32 5.9 4.1 88 1013.2 3.8 S 4.5 0.0 0.1
21:33 5.9 4.1 88 1013.6 3.1 S 4.5 0.0 0.1
21:34 5.9 4.1 88 1013.4 3.8 S 4.5 0.0 0.1
21:35 5.9 4.1 88 1013.4 3.8 S 3.8 0.0 0.1
21:36 5.9 4.1 88 1013.4 3.8 S 3.8 0.0 0.1
21:37 5.9 4.1 88 1013.3 4.5 SSW 4.5 0.0 0.1
21:38 5.9 4.1 88 1013.5 3.1 S 4.5 0.0 0.1
21:39 5.9 4.1 88 1013.6 4.5 SW 4.5 0.0 0.1
21:40 5.9 4.1 88 1013.5 3.1 S 4.5 0.0 0.1
21:41 5.9 4.1 88 1013.5 3.8 S 4.5 0.0 0.1
21:42 5.9 4.1 88 1013.6 4.5 SW 4.5 0.0 0.1
21:43 5.9 4.1 88 1013.4 3.8 S 4.5 0.0 0.1
21:45 5.9 4.1 88 1013.4 4.5 S 4.5 0.0 0.1
21:46 6.0 4.2 88 1013.5 4.5 SSW 4.5 0.0 0.1
21:47 6.0 4.2 88 1013.3 4.5 SW 4.5 0.0 0.1
21:48 6.0 4.2 88 1013.6 6.0 SW 6.0 0.0 0.1
22:20 6.3 4.5 88 1013.4 4.5 SE 6.0 0.0 0.1
22:21 6.3 4.5 88 1013.5 4.5 S 6.0 0.0 0.1
22:22 6.3 4.5 88 1013.4 6.9 SW 6.9 0.0 0.1
22:24 6.3 4.5 88 1013.7 9.2 SW 9.2 0.0 0.1
22:25 6.4 4.6 88 1013.5 9.2 SSW 9.2 0.0 0.1
22:26 6.4 4.6 88 1013.5 7.6 SW 9.2 0.0 0.1
22:27 6.4 4.6 88 1013.1 11.4 SW 11.4 0.0 0.1
22:28 6.5 4.7 88 1013.4 9.8 S 11.4 0.0 0.1
22:29 6.5 4.7 88 1013.5 15.2 SW 15.2 0.0 0.1
22:43 7.2 5.3 88 1013.4 13.6 SW 13.6 0.0 0.1
22:44 7.3 5.4 88 1013.7 13.6 SW 13.6 0.0 0.1
22:45 7.3 5.4 88 1013.6 11.4 S 13.6 0.0 0.1
22:46 7.3 5.4 88 1013.5 13.0 S 13.6 0.0 0.1
22:47 7.3 5.4 88 1013.4 13.0 S 13.6 0.0 0.1
23:41 7.4 5.5 88 1013.5 9.2 W 13.0 3.0 0.3
23:42 7.4 5.5 88 1013.6 12.1 WSW 13.0 3.0 0.3
23:43 7.4 5.5 88 1013.6 15.2 WNW 15.2 3.0 0.4
23:44 7.3 5.4 88 1013.4 15.2 SW 15.2 3.0 0.4
23:45 7.3 5.4 88 1013.4 13.6 SW 15.2 1.5 0.4
23:46 7.3 5.4 88 1013.4 12.1 WSW 15.2 0.8 0.4
23:47 7.3 5.4 88 1013.3 10.7 NW 15.2 0.8 0.4
23:48 7.3 5.4 88 1013.6 8.3 W 15.2 0.8 0.4
23:49 7.2 5.3 88 1013.4 8.3 W 15.2 0.0 0.4
09:52 6.8 5.1 89 1008.2 3.8 W 6.9 0.0 0.1
09:53 6.8 5.1 89 1008.3 5.4 SSW 6.9 0.0 0.1
09:54 6.8 5.1 89 1008.2 6.0 NW 6.0 0.0 0.1
09:55 6.9 5.2 89 1008.5 3.8 W 6.0 0.0 0.1
09:56 6.9 5.2 89 1008.5 2.2 SW 6.0 0.0 0.1
09:58 7.0 5.3 89 1008.3 4.5 SW 7.6 0.0 0.1
09:59 7.0 5.3 89 1008.3 4.5 SW 7.6 0.0 0.1
10:00 7.0 5.3 89 1008.2 6.9 SW 7.6 0.0 0.1
10:01 7.1 5.4 89 1008.3 5.4 WNW 7.6 0.0 0.1
10:02 7.1 5.4 89 1008.3 5.4 W 7.6 0.0 0.1
10:03 7.1 5.4 89 1008.2 5.4 NW 7.6 0.0 0.1
10:04 7.2 5.5 89 1008.3 5.4 SW 9.2 0.0 0.1
10:05 7.2 5.5 89 1008.4 4.5 NW 9.2 0.0 0.1
20:06 5.9 4.2 89 1013.0 6.0 S 9.8 0.0 0.1
20:07 5.9 4.2 89 1013.1 5.4 SW 9.8 0.0 0.1
20:08 5.9 4.2 89 1012.9 6.9 SW 9.8 0.0 0.1
20:09 6.0 4.3 89 1013.1 6.0 S 9.8 0.0 0.1
20:10 6.0 4.3 89 1013.1 6.9 S 9.8 0.0 0.1
20:11 6.0 4.3 89 1013.0 6.9 S 9.8 0.0 0.1
20:12 6.0 4.3 89 1013.1 6.9 SW 9.8 0.0 0.1
20:13 6.0 4.3 89 1013.0 5.4 SSW 7.6 0.0 0.1
20:15 6.1 4.4 89 1013.2 5.4 SSW 6.9 0.0 0.1
20:16 6.1 4.4 89 1013.0 6.9 SSW 6.9 0.0 0.1
20:17 6.1 4.4 89 1013.1 6.0 SW 6.9 0.0 0.1
20:18 6.1 4.4 89 1013.0 3.8 S 6.9 0.0 0.1
20:19 6.1 4.4 89 1012.9 6.0 S 6.9 0.0 0.1
20:20 6.1 4.4 89 1013.3 3.8 S 6.9 0.0 0.1
20:21 6.1 4.4 89 1013.1 3.8 S 6.9 0.0 0.1
20:22 6.1 4.4 89 1013.0 3.8 S 6.9 0.0 0.1
20:23 6.1 4.4 89 1013.2 4.5 SW 6.9 0.0 0.1
20:24 6.1 4.4 89 1013.1 4.5 SSW 6.9 0.0 0.1
20:25 6.1 4.4 89 1013.1 4.5 SW 6.9 0.0 0.1
20:26 6.1 4.4 89 1013.1 4.5 SW 6.9 0.0 0.1
20:27 6.1 4.4 89 1013.2 4.5 SW 6.0 0.0 0.1
20:28 6.1 4.4 89 1013.1 5.4 S 6.0 0.0 0.1
20:29 6.1 4.4 89 1013.2 3.8 W 5.4 0.0 0.1
20:30 6.1 4.4 89 1013.3 6.9 SSW 6.9 0.0 0.1
20:31 6.1 4.4 89 1012.9 5.4 SSW 6.9 0.0 0.1
20:32 6.1 4.4 89 1013.0 4.5 S 6.9 0.0 0.1
20:33 6.1 4.4 89 1013.1 4.5 SW 6.9 0.0 0.1
20:35 6.1 4.4 89 1013.2 7.6 SW 7.6 0.0 0.1
20:36 6.1 4.4 89 1013.2 7.6 SW 7.6 0.0 0.1
20:37 6.1 4.4 89 1013.3 3.8 S 7.6 0.0 0.1
20:38 6.1 4.4 89 1013.2 5.4 SW 7.6 0.0 0.1
20:39 6.1 4.4 89 1013.0 5.4 SW 7.6 0.0 0.1
20:40 6.1 4.4 89 1013.2 3.8 S 7.6 0.0 0.1
20:41 6.1 4.4 89 1013.2 6.9 S 7.6 0.0 0.1
20:42 6.1 4.4 89 1013.2 6.9 SW 7.6 0.0 0.1
20:43 6.1 4.4 89 1013.0 6.9 SW 7.6 0.0 0.1
20:44 6.1 4.4 89 1013.2 6.0 SSE 7.6 0.0 0.1
20:45 6.1 4.4 89 1013.0 4.5 SW 7.6 0.0 0.1
20:46 6.0 4.3 89 1013.2 6.9 SW 6.9 0.0 0.1
20:47 6.0 4.3 89 1013.1 7.6 SW 7.6 0.0 0.1
20:48 6.0 4.3 89 1013.3 7.6 S 7.6 0.0 0.1
20:49 6.0 4.3 89 1013.2 7.6 S 7.6 0.0 0.1
20:50 6.0 4.3 89 1013.2 5.4 S 7.6 0.0 0.1
20:51 6.0 4.3 89 1013.1 6.0 S 7.6 0.0 0.1
20:52 6.0 4.3 89 1013.1 6.0 SW 7.6 0.0 0.1
20:54 6.0 4.3 89 1013.4 4.5 SW 7.6 0.0 0.1
20:55 6.0 4.3 89 1013.4 4.5 SW 7.6 0.0 0.1
20:56 6.0 4.3 89 1013.3 5.4 SW 7.6 0.0 0.1
20:57 6.1 4.4 89 1013.4 5.4 S 7.6 0.0 0.1
20:58 6.1 4.4 89 1013.2 5.4 SW 7.6 0.0 0.1
20:59 6.1 4.4 89 1013.3 4.5 SSW 7.6 0.0 0.1
21:00 6.1 4.4 89 1013.4 5.4 SSE 6.0 0.0 0.1
21:01 6.1 4.4 89 1013.1 5.4 SSE 6.0 0.0 0.1
21:02 6.1 4.4 89 1013.3 5.4 SSE 6.0 0.0 0.1
21:03 6.1 4.4 89 1013.2 5.4 SSE 6.0 0.0 0.1
21:04 6.1 4.4 89 1013.3 5.4 SSE 5.4 0.0 0.1
21:05 6.1 4.4 89 1013.2 5.4 SSE 5.4 0.0 0.1
21:06 6.1 4.4 89 1013.2 3.8 WSW 5.4 0.0 0.1
21:07 6.1 4.4 89 1013.4 3.8 SW 5.4 0.0 0.1
21:08 6.1 4.4 89 1013.4 5.4 SW 5.4 0.0 0.1
21:09 6.0 4.3 89 1013.4 3.8 SW 5.4 0.0 0.1
21:10 6.0 4.3 89 1013.2 6.0 S 6.0 0.0 0.1
21:12 6.0 4.3 89 1013.4 3.8 WSW 6.0 0.0 0.1
21:13 6.0 4.3 89 1013.3 3.1 SSW 6.0 0.0 0.1
21:14 6.0 4.3 89 1013.3 3.1 SW 6.0 0.0 0.1
21:15 6.0 4.3 89 1013.5 3.1 SW 6.0 0.0 0.1
21:16 6.0 4.3 89 1013.3 3.1 SE 6.0 0.0 0.1
21:17 6.0 4.3 89 1013.4 3.1 SW 6.0 0.0 0.1
21:18 6.0 4.3 89 1013.3 2.2 S 6.0 0.0 0.1
21:20 6.0 4.3 89 1013.6 3.1 S 6.0 0.0 0.1
21:24 6.0 4.3 89 1013.3 3.1 SSW 3.1 0.0 0.1
21:49 6.0 4.3 89 1013.5 5.4 SSW 6.0 0.0 0.1
21:50 6.0 4.3 89 1013.4 3.8 SW 6.0 0.0 0.1
21:51 6.1 4.4 89 1013.5 5.4 S 6.0 0.0 0.1
21:52 6.1 4.4 89 1013.4 5.4 SW 6.0 0.0 0.1
21:53 6.1 4.4 89 1013.4 3.8 SW 6.0 0.0 0.1
21:54 6.1 4.4 89 1013.3 3.1 S 6.0 0.0 0.1
21:55 6.1 4.4 89 1013.1 5.4 SW 6.0 0.0 0.1
21:56 6.2 4.5 89 1013.6 3.8 SW 6.0 0.0 0.1
21:57 6.2 4.5 89 1013.5 3.1 S 6.0 0.0 0.1
21:58 6.2 4.5 89 1013.2 3.8 SW 6.0 0.0 0.1
21:59 6.3 4.6 89 1013.4 4.5 SSW 5.4 0.0 0.1
22:00 6.3 4.6 89 1013.1 3.8 SW 5.4 0.0 0.1
22:01 6.3 4.6 89 1013.5 5.4 S 5.4 0.0 0.1
22:02 6.3 4.6 89 1013.4 4.5 S 5.4 0.0 0.1
22:04 6.3 4.6 89 1013.3 4.5 SW 5.4 0.0 0.1
22:05 6.3 4.6 89 1013.5 3.1 S 5.4 0.0 0.1
22:06 6.3 4.6 89 1013.5 3.1 SW 5.4 0.0 0.1
22:07 6.3 4.6 89 1013.3 3.8 S 5.4 0.0 0.1
22:08 6.3 4.6 89 1013.1 3.8 S 5.4 0.0 0.1
22:09 6.3 4.6 89 1013.2 5.4 S 5.4 0.0 0.1
22:10 6.3 4.6 89 1013.4 4.5 S 5.4 0.0 0.1
22:11 6.3 4.6 89 1013.3 4.5 SW 5.4 0.0 0.1
22:12 6.3 4.6 89 1013.3 4.5 SW 5.4 0.0 0.1
22:13 6.3 4.6 89 1013.2 4.5 S 5.4 0.0 0.1
22:14 6.3 4.6 89 1013.2 5.4 S 5.4 0.0 0.1
22:15 6.3 4.6 89 1013.2 4.5 S 5.4 0.0 0.1
22:16 6.3 4.6 89 1013.3 5.4 SSW 5.4 0.0 0.1
22:17 6.3 4.6 89 1013.4 6.0 SW 6.0 0.0 0.1
22:18 6.3 4.6 89 1013.4 5.4 SW 6.0 0.0 0.1
22:19 6.3 4.6 89 1013.4 4.5 S 6.0 0.0 0.1
22:30 6.6 4.9 89 1013.6 9.8 SW 15.2 0.0 0.1
22:31 6.7 5.0 89 1013.3 6.9 S 15.2 0.0 0.1
22:32 6.7 5.0 89 1013.3 9.2 SW 15.2 0.0 0.1
22:33 6.8 5.1 89 1013.6 10.7 W 15.2 0.0 0.1
22:34 6.8 5.1 89 1013.5 12.1 SSW 15.2 0.0 0.1
22:35 6.9 5.2 89 1013.3 9.2 SW 15.2 0.0 0.1
22:36 7.0 5.3 89 1013.5 8.3 SW 15.2 0.0 0.1
22:37 7.0 5.3 89 1013.5 8.3 S 15.2 0.0 0.1
22:38 7.1 5.4 89 1013.4 9.2 SE 15.2 0.0 0.1
22:39 7.1 5.4 89 1013.4 10.7 SW 12.1 0.0 0.1
22:40 7.2 5.5 89 1013.4 12.1 S 12.1 0.0 0.1
22:41 7.2 5.5 89 1013.5 12.1 S 12.1 0.0 0.1
23:51 7.2 5.5 89 1013.3 6.9 SW 15.2 0.0 0.4
23:52 7.2 5.5 89 1013.3 6.9 SW 15.2 0.0 0.4
23:53 7.1 5.4 89 1013.3 5.4 SW 15.2 0.8 0.4
23:54 7.1 5.4 89 1013.3 6.9 SSW 15.2 0.8 0.4
23:55 7.1 5.4 89 1013.4 6.9 SSW 13.6 0.8 0.4
23:56 7.1 5.4 89 1013.4 4.5 SW 12.1 0.8 0.4
23:57 7.0 5.3 89 1013.4 4.5 SW 12.1 0.8 0.4
23:58 7.0 5.3 89 1013.5 4.5 SSW 8.3 0.0 0.4
23:59 7.0 5.3 89 1013.4 3.8 SW 8.3 0.0 0.4
08:27 4.0 2.5 90 1007.2 0.7 WNW 0.7 0.0 0.1
08:28 4.0 2.5 90 1006.9 0.7 WNW 1.6 0.0 0.1
08:29 4.0 2.5 90 1007.1 0.7 W 1.6 0.0 0.1
08:30 4.0 2.5 90 1007.1 0.7 NW 1.6 0.0 0.1
08:31 4.0 2.5 90 1007.0 1.6 W 1.6 0.0 0.1
09:39 6.3 4.8 90 1007.8 4.5 WSW 6.0 0.0 0.1
09:40 6.4 4.9 90 1007.7 3.8 SW 6.0 0.0 0.1
09:41 6.4 4.9 90 1008.0 3.8 W 6.0 0.0 0.1
09:42 6.4 4.9 90 1008.0 6.9 SW 6.9 0.0 0.1
09:43 6.5 5.0 90 1008.2 6.9 WSW 6.9 0.0 0.1
09:44 6.5 5.0 90 1007.9 6.0 NW 6.9 0.0 0.1
09:45 6.5 5.0 90 1008.0 3.1 W 6.9 0.0 0.1
09:46 6.6 5.1 90 1008.2 6.0 WSW 6.9 0.0 0.1
09:47 6.6 5.1 90 1008.1 3.8 W 6.9 0.0 0.1
09:48 6.6 5.1 90 1008.0 3.8 NW 6.9 0.0 0.1
09:49 6.7 5.2 90 1008.5 6.0 W 6.9 0.0 0.1
09:50 6.7 5.2 90 1008.2 6.0 W 6.9 0.0 0.1
09:51 6.7 5.2 90 1008.1 6.0 W 6.9 0.0 0.1
07:30 4.2 2.9 91 1005.5 2.2 W 2.2 0.0 0.1
07:31 4.2 2.9 91 1005.4 2.2 NW 2.2 0.0 0.1
07:32 4.2 2.9 91 1005.6 1.6 NW 2.2 0.0 0.1
07:33 4.2 2.9 91 1005.6 1.6 NW 2.2 0.0 0.1
07:34 4.2 2.9 91 1005.6 1.6 NW 2.2 0.0 0.1
07:35 4.2 2.9 91 1005.8 1.6 W 2.2 0.0 0.1
07:36 4.2 2.9 91 1005.9 0.7 NW 2.2 0.0 0.1
07:37 4.2 2.9 91 1005.8 0.7 W 2.2 0.0 0.1
07:38 4.2 2.9 91 1005.8 1.6 NW 2.2 0.0 0.1
07:39 4.2 2.9 91 1005.9 1.6 NNW 2.2 0.0 0.1
07:40 4.2 2.9 91 1005.8 0.7 NW 2.2 0.0 0.1
07:41 4.1 2.8 91 1005.8 1.6 NW 1.6 0.0 0.1
07:42 4.1 2.8 91 1005.9 1.6 NW 1.6 0.0 0.1
07:43 4.1 2.8 91 1006.0 0.7 NW 1.6 0.0 0.1
07:44 4.1 2.8 91 1006.0 0.7 NW 1.6 0.0 0.1
07:45 4.1 2.8 91 1006.0 0.7 NW 1.6 0.0 0.1
07:47 4.1 2.8 91 1006.1 0.7 W 1.6 0.0 0.1
07:48 4.1 2.8 91 1006.0 1.6 NW 1.6 0.0 0.1
07:49 4.0 2.7 91 1006.1 0.7 NW 1.6 0.0 0.1
07:50 4.0 2.7 91 1006.2 0.7 NW 1.6 0.0 0.1
07:51 4.0 2.7 91 1006.2 0.7 NW 1.6 0.0 0.1
07:52 4.0 2.7 91 1006.2 0.7 NW 1.6 0.0 0.1
07:53 4.0 2.7 91 1006.2 1.6 NW 1.6 0.0 0.1
07:54 4.0 2.7 91 1006.2 0.7 NNW 1.6 0.0 0.1
07:55 4.0 2.7 91 1006.2 1.6 N 1.6 0.0 0.1
07:56 4.0 2.7 91 1006.4 1.6 N 1.6 0.0 0.1
07:57 4.0 2.7 91 1006.5 2.2 NW 2.2 0.0 0.1
07:58 4.0 2.7 91 1006.5 1.6 NW 2.2 0.0 0.1
07:59 4.0 2.7 91 1006.5 0.7 W 2.2 0.0 0.1
08:00 4.0 2.7 91 1006.2 0.7 NW 2.2 0.0 0.1
08:01 4.0 2.7 91 1006.4 0.7 NW 2.2 0.0 0.1
08:02 4.0 2.7 91 1006.4 1.6 NW 2.2 0.0 0.1
08:03 4.0 2.7 91 1006.5 1.6 NW 2.2 0.0 0.1
08:04 4.0 2.7 91 1006.2 1.6 W 2.2 0.0 0.1
08:06 4.0 2.7 91 1006.7 2.2 NW 2.2 0.0 0.1
08:07 4.0 2.7 91 1006.7 2.2 NW 2.2 0.0 0.1
08:08 4.0 2.7 91 1006.7 1.6 W 2.2 0.0 0.1
08:09 4.0 2.7 91 1006.7 1.6 NW 2.2 0.0 0.1
08:10 4.0 2.7 91 1006.6 1.6 NW 2.2 0.0 0.1
08:11 4.0 2.7 91 1006.6 0.7 NW 2.2 0.0 0.1
08:12 4.0 2.7 91 1006.8 0.7 W 2.2 0.0 0.1
08:13 4.0 2.7 91 1006.8 0.7 W 2.2 0.0 0.1
08:14 4.0 2.7 91 1006.8 0.7 WNW 2.2 0.0 0.1
08:15 4.0 2.7 91 1006.6 0.7 NW 2.2 0.0 0.1
08:16 4.0 2.7 91 1006.9 0.0 W 2.2 0.0 0.1
08:17 4.0 2.7 91 1006.7 0.7 NW 1.6 0.0 0.1
08:18 4.0 2.7 91 1006.8 0.7 NW 1.6 0.0 0.1
08:19 4.0 2.7 91 1006.9 0.7 NW 1.6 0.0 0.1
08:20 4.0 2.7 91 1006.9 0.7 W 0.7 0.0 0.1
08:21 4.0 2.7 91 1006.9 0.7 W 0.7 0.0 0.1
08:23 4.0 2.7 91 1007.1 0.0 NW 0.7 0.0 0.1
08:24 4.0 2.7 91 1006.9 0.0 NW 0.7 0.0 0.1
08:25 4.0 2.7 91 1006.9 0.0 NW 0.7 0.0 0.1
08:26 4.0 2.7 91 1006.9 0.7 NW 0.7 0.0 0.1
08:32 4.1 2.8 91 1007.2 0.7 NW 1.6 0.0 0.1
08:33 4.1 2.8 91 1006.9 0.7 NW 1.6 0.0 0.1
08:34 4.1 2.8 91 1007.0 1.6 NW 1.6 0.0 0.1
08:35 4.1 2.8 91 1007.2 1.6 WNW 1.6 0.0 0.1
08:36 4.1 2.8 91 1007.2 0.7 W 1.6 0.0 0.1
08:37 4.1 2.8 91 1007.2 0.7 WNW 1.6 0.0 0.1
08:38 4.2 2.9 91 1007.3 0.7 NW 1.6 0.0 0.1
08:40 4.2 2.9 91 1007.4 0.7 W 1.6 0.0 0.1
08:41 4.2 2.9 91 1007.3 0.7 N 1.6 0.0 0.1
08:42 4.2 2.9 91 1007.2 0.7 W 1.6 0.0 0.1
08:43 4.3 3.0 91 1007.3 1.6 SW 1.6 0.0 0.1
08:44 4.3 3.0 91 1007.1 0.7 NW 1.6 0.0 0.1
08:45 4.3 3.0 91 1007.5 1.6 NW 1.6 0.0 0.1
08:46 4.4 3.1 91 1007.3 1.6 W 1.6 0.0 0.1
08:47 4.4 3.1 91 1007.4 2.2 WSW 2.2 0.0 0.1
08:48 4.4 3.1 91 1007.3 3.1 WNW 3.1 0.0 0.1
08:49 4.4 3.1 91 1007.4 2.2 W 3.1 0.0 0.1
08:50 4.5 3.2 91 1007.4 3.8 W 3.8 0.0 0.1
08:51 4.5 3.2 91 1007.5 2.2 WSW 3.8 0.0 0.1
08:52 4.5 3.2 91 1007.5 3.1 W 3.8 0.0 0.1
08:53 4.6 3.3 91 1007.5 3.1 W 3.8 0.0 0.1
08:54 4.6 3.3 91 1007.4 2.2 W 3.8 0.0 0.1
08:55 4.7 3.4 91 1007.5 2.2 W 3.8 0.0 0.1
08:56 4.7 3.4 91 1007.4 1.6 SW 3.8 0.0 0.1
08:57 4.7 3.4 91 1007.5 3.1 NW 3.8 0.0 0.1
08:59 4.8 3.5 91 1007.6 2.2 W 3.8 0.0 0.1
09:00 4.8 3.5 91 1007.4 2.2 W 3.8 0.0 0.1
09:01 4.8 3.5 91 1007.4 2.2 W 3.1 0.0 0.1
09:02 4.8 3.5 91 1007.4 2.2 W 3.1 0.0 0.1
09:03 4.8 3.5 91 1007.5 2.2 W 3.1 0.0 0.1
09:04 4.8 3.5 91 1007.6 2.2 W 3.1 0.0 0.1
09:05 4.8 3.5 91 1007.8 2.2 W 3.1 0.0 0.1
09:06 4.8 3.5 91 1007.7 2.2 W 3.1 0.0 0.1
09:07 5.0 3.7 91 1007.7 1.6 W 3.1 0.0 0.1
09:08 5.1 3.8 91 1007.6 1.6 W 2.2 0.0 0.1
09:09 5.1 3.8 91 1007.8 2.2 W 2.2 0.0 0.1
09:10 5.1 3.8 91 1007.5 2.2 W 2.2 0.0 0.1
09:11 5.1 3.8 91 1007.6 2.2 NW 2.2 0.0 0.1
09:12 5.2 3.9 91 1007.5 2.2 W 2.2 0.0 0.1
09:13 5.2 3.9 91 1007.8 2.2 N 2.2 0.0 0.1
09:14 5.2 3.9 91 1007.8 3.1 NW 3.1 0.0 0.1
09:15 5.3 4.0 91 1007.6 3.1 W 3.1 0.0 0.1
09:16 5.3 4.0 91 1007.7 3.1 WSW 3.1 0.0 0.1
09:17 5.3 4.0 91 1007.6 3.1 WNW 3.1 0.0 0.1
09:18 5.4 4.1 91 1007.7 3.1 W 3.8 0.0 0.1
09:20 5.4 4.1 91 1007.8 3.1 WSW 3.8 0.0 0.1
09:21 5.5 4.1 91 1007.8 3.1 W 3.8 0.0 0.1
09:22 5.5 4.1 91 1007.7 4.5 W 4.5 0.0 0.1
09:23 5.6 4.2 91 1007.9 5.4 NW 5.4 0.0 0.1
09:24 5.6 4.2 91 1007.8 3.8 SW 5.4 0.0 0.1
09:25 5.7 4.3 91 1007.7 3.8 W 5.4 0.0 0.1
09:26 5.7 4.3 91 1007.7 3.8 NW 5.4 0.0 0.1
09:27 5.7 4.3 91 1008.0 6.0 NW 6.0 0.0 0.1
09:28 5.9 4.5 91 1007.9 6.9 W 6.9 0.0 0.1
09:29 5.9 4.5 91 1008.0 4.5 W 6.9 0.0 0.1
09:30 6.0 4.6 91 1008.0 3.8 NW 6.9 0.0 0.1
09:31 6.0 4.6 91 1008.0 4.5 W 6.9 0.0 0.1
09:32 6.1 4.7 91 1008.0 5.4 WSW 6.9 0.0 0.1
09:33 6.1 4.7 91 1008.0 5.4 W 6.9 0.0 0.1
09:34 6.2 4.8 91 1008.0 6.0 W 6.9 0.0 0.1
09:35 6.2 4.8 91 1008.0 5.4 WNW 6.9 0.0 0.1
09:36 6.2 4.8 91 1007.9 4.5 W 6.9 0.0 0.1
09:37 6.2 4.8 91 1008.0 3.8 W 6.9 0.0 0.1
06:59 4.2 3.0 92 1004.7 1.6 NW 4.5 0.0 0.1
07:00 4.2 3.0 92 1005.0 2.2 NW 4.5 0.0 0.1
07:01 4.2 3.0 92 1004.8 2.2 NW 4.5 0.0 0.1
07:02 4.2 3.0 92 1004.9 2.2 NW 4.5 0.0 0.1
07:03 4.2 3.0 92 1004.9 2.2 NW 4.5 0.0 0.1
07:04 4.2 3.0 92 1004.9 2.2 NW 4.5 0.0 0.1
07:05 4.2 3.0 92 1005.0 2.2 NW 4.5 0.0 0.1
07:06 4.2 3.0 92 1005.0 2.2 WNW 3.1 0.0 0.1
07:07 4.1 2.9 92 1004.8 2.2 NW 2.2 0.0 0.1
07:09 4.1 2.9 92 1005.2 3.1 NW 3.1 0.0 0.1
07:10 4.1 2.9 92 1005.2 2.2 NW 3.1 0.0 0.1
07:11 4.1 2.9 92 1005.2 3.1 NW 3.1 0.0 0.1
07:12 4.1 2.9 92 1005.0 3.1 NW 3.8 0.0 0.1
07:13 4.1 2.9 92 1005.2 2.2 NW 3.8 0.0 0.1
07:14 4.1 2.9 92 1005.3 1.6 NW 3.8 0.0 0.1
07:15 4.1 2.9 92 1005.1 3.1 WNW 3.8 0.0 0.1
07:16 4.1 2.9 92 1005.2 3.8 WNW 3.8 0.0 0.1
07:17 4.1 2.9 92 1005.2 3.8 NW 3.8 0.0 0.1
07:18 4.1 2.9 92 1005.3 3.8 W 3.8 0.0 0.1
07:19 4.1 2.9 92 1005.2 3.8 W 3.8 0.0 0.1
07:20 4.1 2.9 92 1005.3 2.2 W 3.8 0.0 0.1
07:21 4.1 2.9 92 1005.3 2.2 NW 3.8 0.0 0.1
07:22 4.2 3.0 92 1005.3 1.6 W 3.8 0.0 0.1
07:23 4.2 3.0 92 1005.4 1.6 NW 3.8 0.0 0.1
07:24 4.2 3.0 92 1005.4 2.2 W 3.8 0.0 0.1
07:25 4.2 3.0 92 1005.4 2.2 W 3.8 0.0 0.1
07:26 4.2 3.0 92 1005.2 1.6 NW 3.8 0.0 0.1
07:28 4.2 3.0 92 1005.5 1.6 W 3.8 0.0 0.1
07:29 4.2 3.0 92 1005.5 2.2 NW 3.1 0.0 0.1
06:11 4.3 3.3 93 1004.0 1.6 WSW 1.6 0.0 0.1
06:13 4.2 3.2 93 1004.1 1.6 NW 1.6 0.0 0.1
06:14 4.2 3.2 93 1004.0 1.6 WNW 1.6 0.0 0.1
06:15 4.2 3.2 93 1004.1 2.2 NW 2.2 0.0 0.1
06:16 4.2 3.2 93 1004.1 1.6 NW 2.2 0.0 0.1
06:17 4.2 3.2 93 1004.2 0.7 NW 2.2 0.0 0.1
06:18 4.1 3.1 93 1003.9 2.2 WNW 2.2 0.0 0.1
06:19 4.1 3.1 93 1004.2 2.2 NW 2.2 0.0 0.1
06:20 4.1 3.1 93 1004.0 3.1 NW 3.1 0.0 0.1
06:21 4.1 3.1 93 1004.3 3.1 NW 3.1 0.0 0.1
06:22 4.1 3.1 93 1004.1 3.1 W 3.1 0.0 0.1
06:23 4.1 3.1 93 1004.2 3.1 W 3.1 0.0 0.1
06:24 4.1 3.1 93 1004.1 2.2 W 3.1 0.0 0.1
06:25 4.1 3.1 93 1004.3 1.6 NW 3.1 0.0 0.1
06:26 4.1 3.1 93 1004.3 1.6 NW 3.1 0.0 0.1
06:27 4.1 3.1 93 1004.1 1.6 W 3.1 0.0 0.1
06:28 4.1 3.1 93 1004.4 2.2 W 3.1 0.0 0.1
06:29 4.1 3.1 93 1004.4 2.2 W 3.1 0.0 0.1
06:30 4.2 3.2 93 1004.4 3.8 W 3.8 0.0 0.1
06:32 4.2 3.2 93 1004.5 2.2 W 3.8 0.0 0.1
06:33 4.2 3.2 93 1004.5 2.2 NW 3.8 0.0 0.1
06:34 4.2 3.2 93 1004.5 2.2 W 3.8 0.0 0.1
06:35 4.2 3.2 93 1004.5 1.6 N 3.8 0.0 0.1
06:36 4.2 3.2 93 1004.3 2.2 W 3.8 0.0 0.1
06:37 4.2 3.2 93 1004.5 1.6 W 3.8 0.0 0.1
06:38 4.2 3.2 93 1004.6 1.6 W 3.8 0.0 0.1
06:39 4.2 3.2 93 1004.5 1.6 NW 3.8 0.0 0.1
06:40 4.2 3.2 93 1004.6 2.2 NW 3.8 0.0 0.1
06:41 4.2 3.2 93 1004.6 2.2 N 3.1 0.0 0.1
06:42 4.2 3.2 93 1004.7 3.8 SW 3.8 0.0 0.1
06:43 4.2 3.2 93 1004.5 1.6 NW 3.8 0.0 0.1
06:44 4.2 3.2 93 1004.6 2.2 WNW 3.8 0.0 0.1
06:45 4.2 3.2 93 1004.5 2.2 W 3.8 0.0 0.1
06:46 4.2 3.2 93 1004.6 1.6 WNW 3.8 0.0 0.1
06:47 4.2 3.2 93 1004.5 3.1 NW 3.8 0.0 0.1
06:48 4.3 3.3 93 1004.7 2.2 NW 3.8 0.0 0.1
06:50 4.3 3.3 93 1004.8 1.6 NW 3.8 0.0 0.1
06:51 4.3 3.3 93 1004.8 1.6 NW 3.8 0.0 0.1
06:52 4.3 3.3 93 1004.6 1.6 WNW 3.8 0.0 0.1
06:53 4.3 3.3 93 1004.6 3.8 W 3.8 0.0 0.1
06:54 4.3 3.3 93 1004.5 3.8 N 3.8 0.0 0.1
06:55 4.3 3.3 93 1004.8 3.1 W 3.8 0.0 0.1
06:56 4.2 3.2 93 1004.7 2.2 NW 4.5 0.0 0.1
06:57 4.2 3.2 93 1004.7 3.1 W 4.5 0.0 0.1
06:58 4.2 3.2 93 1004.7 2.2 W 4.5 0.0 0.1
00:00 4.4 3.5 94 1001.0 2.2 W 2.2 0.0 0.0
00:01 4.4 3.5 94 1000.9 1.6 W 2.2 0.0 0.0
05:54 4.5 3.6 94 1004.1 0.7 WNW 3.1 0.0 0.1
05:55 4.5 3.6 94 1004.1 0.7 WNW 3.1 0.0 0.1
05:56 4.5 3.6 94 1003.9 1.6 W 3.1 0.0 0.1
05:57 4.5 3.6 94 1003.8 0.7 NW 3.1 0.0 0.1
05:58 4.5 3.6 94 1003.7 2.2 NW 3.1 0.0 0.1
05:59 4.5 3.6 94 1003.9 1.6 NW 3.1 0.0 0.1
06:00 4.4 3.5 94 1004.2 2.2 WNW 3.1 0.0 0.1
06:01 4.4 3.5 94 1004.0 0.7 N 3.1 0.0 0.1
06:02 4.4 3.5 94 1003.9 0.7 NW 2.2 0.0 0.1
06:03 4.4 3.5 94 1004.0 0.7 NW 2.2 0.0 0.1
06:04 4.4 3.5 94 1003.9 1.6 NW 2.2 0.0 0.1
06:05 4.4 3.5 94 1004.0 1.6 NW 2.2 0.0 0.1
06:06 4.4 3.5 94 1003.9 1.6 NW 2.2 0.0 0.1
06:07 4.3 3.4 94 1004.0 1.6 NNW 2.2 0.0 0.1
06:08 4.3 3.4 94 1004.0 1.6 NW 2.2 0.0 0.1
06:09 4.3 3.4 94 1004.0 1.6 NW 2.2 0.0 0.1
06:10 4.3 3.4 94 1004.0 1.6 N 2.2 0.0 0.1
00:02 4.5 3.8 95 1000.9 1.6 W 2.2 0.0 0.0
00:03 4.5 3.8 95 1000.9 2.2 W 2.2 0.0 0.0
00:04 4.5 3.8 95 1000.9 3.1 SW 3.1 0.0 0.0
00:05 4.5 3.8 95 1001.0 3.1 S 3.1 0.0 0.0
00:06 4.5 3.8 95 1000.9 1.6 NW 3.1 0.0 0.0
00:07 4.5 3.8 95 1001.0 0.7 W 3.1 0.0 0.0
00:08 4.5 3.8 95 1001.1 0.7 W 3.1 0.0 0.0
00:09 4.5 3.8 95 1001.0 0.7 W 3.1 0.0 0.0
00:10 4.5 3.8 95 1000.9 0.7 W 3.1 0.0 0.0
00:11 4.5 3.8 95 1001.0 0.7 W 3.1 0.0 0.0
00:13 4.5 3.8 95 1001.2 1.6 SW 3.1 0.0 0.0
00:14 4.5 3.8 95 1001.0 1.6 W 3.1 0.0 0.0
00:15 4.5 3.8 95 1001.1 0.7 W 3.1 0.0 0.0
00:16 4.5 3.8 95 1001.1 1.6 W 1.6 0.0 0.0
00:17 4.5 3.8 95 1000.9 1.6 W 1.6 0.0 0.0
00:18 4.5 3.8 95 1001.1 3.1 W 3.1 0.0 0.0
00:19 4.5 3.8 95 1001.2 3.1 W 3.1 0.0 0.0
00:20 4.5 3.8 95 1001.2 3.1 W 3.1 0.0 0.0
00:21 4.5 3.8 95 1001.1 3.1 NW 3.1 0.0 0.0
00:22 4.5 3.8 95 1001.2 3.1 W 3.1 0.0 0.0
05:46 4.6 3.9 95 1003.9 1.6 NW 2.2 0.0 0.1
05:47 4.6 3.9 95 1003.7 0.7 NW 2.2 0.0 0.1
05:48 4.6 3.9 95 1003.8 1.6 NW 2.2 0.0 0.1
05:49 4.6 3.9 95 1003.9 1.6 NW 2.2 0.0 0.1
05:50 4.5 3.8 95 1004.0 3.1 W 3.1 0.0 0.1
05:51 4.5 3.8 95 1003.9 3.1 NW 3.1 0.0 0.1
05:52 4.5 3.8 95 1003.9 2.2 W 3.1 0.0 0.1
00:23 4.6 4.0 96 1001.2 3.1 W 3.1 0.0 0.0
00:24 4.6 4.0 96 1001.2 3.1 W 3.1 0.0 0.0
00:25 4.6 4.0 96 1001.2 3.1 W 3.1 0.0 0.0
00:26 4.6 4.0 96 1001.3 3.1 W 3.1 0.0 0.0
00:27 4.6 4.0 96 1001.0 3.1 W 3.1 0.0 0.0
00:28 4.6 4.0 96 1001.3 3.1 WNW 3.1 0.0 0.0
00:29 4.6 4.0 96 1001.2 3.1 WNW 3.1 0.0 0.0
00:30 4.7 4.1 96 1001.2 3.1 SW 3.1 0.0 0.0
00:32 4.7 4.1 96 1001.3 3.1 NW 3.1 0.0 0.0
00:33 4.7 4.1 96 1001.3 3.1 SW 3.1 0.0 0.0
00:34 4.7 4.1 96 1001.2 3.1 NNW 3.1 0.0 0.0
00:35 4.7 4.1 96 1001.1 3.8 W 3.8 0.0 0.0
01:40 4.1 3.5 96 1001.6 0.7 NW 1.6 0.0 0.0
01:42 4.0 3.4 96 1001.9 1.6 SW 1.6 0.0 0.0
01:43 4.0 3.4 96 1001.9 1.6 SW 1.6 0.0 0.0
01:44 3.9 3.3 96 1001.6 0.7 N 1.6 0.0 0.0
01:45 3.8 3.2 96 1001.7 0.7 E 1.6 0.0 0.0
01:46 3.8 3.2 96 1001.8 0.7 SE 1.6 0.0 0.0
01:47 3.7 3.1 96 1001.7 0.7 SW 1.6 0.0 0.0
01:48 3.7 3.1 96 1001.5 3.8 SW 3.8 0.0 0.0
01:49 3.7 3.1 96 1001.8 3.1 NW 3.8 0.0 0.0
01:50 3.7 3.1 96 1001.5 0.0 W 3.8 0.0 0.0
01:51 3.7 3.1 96 1001.7 0.0 NW 3.8 0.0 0.0
01:52 3.7 3.1 96 1001.8 0.0 NW 3.8 0.0 0.0
01:53 3.7 3.1 96 1001.7 1.6 WNW 3.8 0.0 0.0
01:54 3.7 3.1 96 1001.9 3.1 WSW 3.8 0.0 0.0
01:55 3.8 3.2 96 1001.8 3.8 W 3.8 0.0 0.0
01:56 3.8 3.2 96 1001.8 1.6 SW 3.8 0.0 0.0
01:57 3.8 3.2 96 1001.9 2.2 SW 3.8 0.0 0.0
01:58 3.8 3.2 96 1001.8 1.6 W 3.8 0.0 0.0
02:00 3.8 3.2 96 1001.5 0.7 W 3.8 0.0 0.0
02:01 3.9 3.3 96 1001.7 0.7 W 3.8 0.0 0.0
02:02 3.9 3.3 96 1001.8 1.6 SW 3.8 0.0 0.0
02:03 3.9 3.3 96 1001.6 1.6 W 3.8 0.0 0.0
02:04 3.9 3.3 96 1001.8 0.7 SW 3.8 0.0 0.0
02:05 3.9 3.3 96 1001.7 3.1 SW 3.8 0.0 0.0
02:06 3.9 3.3 96 1001.7 2.2 SW 3.1 0.0 0.0
02:07 3.9 3.3 96 1001.9 1.6 SW 3.1 0.0 0.0
02:08 3.9 3.3 96 1001.7 1.6 S 3.1 0.0 0.0
02:09 4.0 3.4 96 1001.6 1.6 SE 3.1 0.0 0.0
02:10 4.0 3.4 96 1001.6 2.2 SE 3.1 0.0 0.0
02:11 4.0 3.4 96 1001.7 1.6 SE 3.1 0.0 0.0
02:12 4.0 3.4 96 1001.6 1.6 SSW 3.1 0.0 0.0
02:13 4.0 3.4 96 1001.6 1.6 SW 3.1 0.0 0.0
02:14 4.0 3.4 96 1001.7 1.6 S 3.1 0.0 0.0
02:15 4.0 3.4 96 1001.7 0.7 S 2.2 0.0 0.0
02:17 4.0 3.4 96 1001.7 0.7 SW 2.2 0.0 0.0
02:18 4.0 3.4 96 1001.7 0.7 N 2.2 0.0 0.0
02:19 4.0 3.4 96 1001.6 0.7 N 2.2 0.0 0.0
02:20 4.0 3.4 96 1001.6 0.7 S 2.2 0.0 0.0
02:21 4.0 3.4 96 1001.6 0.7 S 1.6 0.0 0.0
02:22 4.0 3.4 96 1001.8 0.7 NE 1.6 0.0 0.0
02:35 3.8 3.2 96 1001.8 0.0 NW 0.7 0.0 0.0
02:36 3.7 3.1 96 1001.8 0.0 NW 0.7 0.0 0.0
02:37 3.7 3.1 96 1001.8 0.0 NW 0.7 0.0 0.0
02:38 3.7 3.1 96 1001.7 0.0 NW 0.7 0.0 0.0
02:39 3.7 3.1 96 1001.9 0.0 NW 0.7 0.0 0.0
02:40 3.6 3.0 96 1001.8 0.0 NW 0.7 0.0 0.0
02:41 3.6 3.0 96 1001.9 0.0 NW 0.0 0.0 0.0
02:42 3.6 3.0 96 1001.8 0.0 NW 0.0 0.0 0.0
02:43 3.6 3.0 96 1002.0 0.0 NW 0.0 0.0 0.0
02:44 3.6 3.0 96 1002.1 0.0 N 0.0 0.0 0.0
02:45 3.6 3.0 96 1001.9 0.0 N 0.0 0.0 0.0
02:46 3.6 3.0 96 1001.8 0.0 NW 0.0 0.0 0.0
02:47 3.6 3.0 96 1001.7 0.0 NW 0.0 0.0 0.0
02:48 3.6 3.0 96 1001.8 0.0 NW 0.0 0.0 0.0
02:49 3.5 2.9 96 1001.7 0.0 NW 0.0 0.0 0.0
02:51 3.5 2.9 96 1001.9 0.0 NW 0.0 0.0 0.0
02:52 3.6 3.0 96 1001.9 0.7 W 0.7 0.0 0.0
02:53 3.6 3.0 96 1001.9 0.7 W 0.7 0.0 0.0
05:38 4.7 4.1 96 1003.8 1.6 WNW 3.1 0.0 0.1
05:39 4.7 4.1 96 1003.7 1.6 W 2.2 0.0 0.1
05:40 4.7 4.1 96 1003.8 2.2 W 2.2 0.0 0.1
05:41 4.7 4.1 96 1003.8 2.2 W 2.2 0.0 0.1
05:42 4.6 4.0 96 1003.7 1.6 W 2.2 0.0 0.1
05:43 4.6 4.0 96 1003.8 0.7 NW 2.2 0.0 0.1
05:44 4.6 4.0 96 1003.8 1.6 NW 2.2 0.0 0.1
05:45 4.6 4.0 96 1003.9 1.6 NW 2.2 0.0 0.1
00:36 4.8 4.4 97 1001.3 2.2 W 3.8 0.0 0.0
00:37 4.8 4.4 97 1001.3 2.2 W 3.8 0.0 0.0
00:38 4.8 4.4 97 1001.4 2.2 W 3.8 0.0 0.0
00:39 4.8 4.4 97 1001.3 2.2 NW 3.8 0.0 0.0
00:40 4.8 4.4 97 1001.4 2.2 NW 3.8 0.0 0.0
00:41 4.8 4.4 97 1001.1 2.2 W 3.8 0.0 0.0
00:42 4.8 4.4 97 1001.4 3.1 W 3.8 0.0 0.0
00:43 4.8 4.4 97 1001.4 3.1 SW 3.8 0.0 0.0
00:44 4.8 4.4 97 1001.4 2.2 WSW 3.8 0.0 0.0
00:45 4.8 4.4 97 1001.4 2.2 NW 3.8 0.0 0.0
00:46 4.8 4.4 97 1001.5 2.2 W 3.1 0.0 0.0
00:48 4.8 4.4 97 1001.5 3.8 NW 3.8 0.0 0.0
00:49 4.8 4.4 97 1001.4 3.1 N 3.8 0.0 0.0
00:50 4.8 4.4 97 1001.6 2.2 NW 3.8 0.0 0.0
00:51 4.8 4.4 97 1001.5 2.2 W 3.8 0.0 0.0
00:52 4.8 4.4 97 1001.3 1.6 W 3.8 0.0 0.0
00:53 4.8 4.4 97 1001.4 0.7 W 3.8 0.0 0.0
00:54 4.8 4.4 97 1001.6 1.6 NW 3.8 0.0 0.0
00:55 4.8 4.4 97 1001.5 1.6 W 3.8 0.0 0.0
00:56 4.7 4.3 97 1001.6 1.6 W 3.8 0.0 0.0
00:57 4.7 4.3 97 1001.5 1.6 W 3.8 0.0 0.0
00:58 4.7 4.3 97 1001.4 0.7 NW 3.1 0.0 0.0
00:59 4.7 4.3 97 1001.3 0.7 NW 2.2 0.0 0.0
01:00 4.7 4.3 97 1001.6 0.7 NW 2.2 0.0 0.0
01:01 4.7 4.3 97 1001.5 0.7 NW 2.2 0.0 0.0
01:02 4.7 4.3 97 1001.3 0.7 NW 2.2 0.0 0.0
01:03 4.7 4.3 97 1001.6 0.7 NW 2.2 0.0 0.0
01:04 4.7 4.3 97 1001.5 0.7 NW 2.2 0.0 0.0
01:06 4.6 4.2 97 1001.5 0.7 NW 1.6 0.0 0.0
01:07 4.6 4.2 97 1001.5 0.7 NW 1.6 0.0 0.0
01:08 4.6 4.2 97 1001.6 1.6 NW 1.6 0.0 0.0
01:09 4.6 4.2 97 1001.4 0.7 NW 1.6 0.0 0.0
01:10 4.6 4.2 97 1001.5 0.0 N 1.6 0.0 0.0
01:11 4.6 4.2 97 1001.4 0.7 NNW 1.6 0.0 0.0
01:12 4.6 4.2 97 1001.5 0.0 NW 1.6 0.0 0.0
01:13 4.6 4.2 97 1001.5 0.7 W 1.6 0.0 0.0
01:14 4.6 4.2 97 1001.6 0.7 NW 1.6 0.0 0.0
01:15 4.6 4.2 97 1001.5 0.7 NNW 1.6 0.0 0.0
01:16 4.6 4.2 97 1001.5 0.7 NW 1.6 0.0 0.0
01:17 4.6 4.2 97 1001.6 0.7 W 1.6 0.0 0.0
01:18 4.6 4.2 97 1001.4 0.7 NW 0.7 0.0 0.0
01:19 4.6 4.2 97 1001.5 0.7 NW 0.7 0.0 0.0
01:20 4.6 4.2 97 1001.6 0.7 NW 0.7 0.0 0.0
01:21 4.5 4.1 97 1001.6 0.7 NW 0.7 0.0 0.0
01:22 4.5 4.1 97 1001.6 0.7 NW 0.7 0.0 0.0
01:24 4.5 4.1 97 1001.5 0.0 NW 0.7 0.0 0.0
01:25 4.5 4.1 97 1001.5 0.0 NW 0.7 0.0 0.0
01:26 4.5 4.1 97 1001.6 0.0 NW 0.7 0.0 0.0
01:27 4.4 4.0 97 1001.7 0.0 NW 0.7 0.0 0.0
01:28 4.4 4.0 97 1001.6 0.0 NW 0.7 0.0 0.0
01:29 4.3 3.9 97 1001.7 0.0 NW 0.7 0.0 0.0
01:30 4.3 3.9 97 1001.7 0.7 N 0.7 0.0 0.0
01:31 4.3 3.9 97 1001.5 1.6 N 1.6 0.0 0.0
01:32 4.2 3.8 97 1001.5 0.7 NW 1.6 0.0 0.0
01:33 4.2 3.8 97 1001.5 0.7 N 1.6 0.0 0.0
01:34 4.2 3.8 97 1001.6 0.7 N 1.6 0.0 0.0
01:35 4.2 3.8 97 1001.7 0.7 N 1.6 0.0 0.0
01:36 4.2 3.8 97 1001.8 0.0 N 1.6 0.0 0.0
01:37 4.2 3.8 97 1001.5 0.0 N 1.6 0.0 0.0
01:38 4.2 3.8 97 1001.3 1.6 SW 1.6 0.0 0.0
01:39 4.1 3.7 97 1001.4 0.7 WSW 1.6 0.0 0.0
02:23 3.9 3.5 97 1001.8 0.7 N 1.6 0.0 0.0
02:24 3.9 3.5 97 1001.8 0.7 NW 1.6 0.0 0.0
02:25 3.9 3.5 97 1001.8 0.7 E 1.6 0.0 0.0
02:26 3.9 3.5 97 1001.7 0.7 S 1.6 0.0 0.0
02:27 3.9 3.5 97 1001.9 0.7 W 0.7 0.0 0.0
02:28 3.9 3.5 97 1001.9 0.7 NW 0.7 0.0 0.0
02:29 3.9 3.5 97 1001.8 0.7 NW 0.7 0.0 0.0
02:30 3.8 3.4 97 1001.8 0.0 NW 0.7 0.0 0.0
02:31 3.8 3.4 97 1001.6 0.0 NW 0.7 0.0 0.0
02:32 3.8 3.4 97 1001.9 0.0 NW 0.7 0.0 0.0
02:33 3.8 3.4 97 1001.7 0.0 NW 0.7 0.0 0.0
02:54 3.6 3.2 97 1002.2 0.7 W 0.7 0.0 0.0
02:55 3.6 3.2 97 1001.8 0.0 NW 0.7 0.0 0.0
02:56 3.6 3.2 97 1001.9 0.0 W 0.7 0.0 0.0
02:57 3.6 3.2 97 1002.0 0.0 W 0.7 0.0 0.0
02:58 3.6 3.2 97 1001.7 0.0 W 0.7 0.0 0.0
02:59 3.6 3.2 97 1001.9 0.0 W 0.7 0.0 0.0
03:00 3.6 3.2 97 1002.0 0.7 WSW 0.7 0.0 0.0
03:01 3.6 3.2 97 1001.9 0.7 WSW 0.7 0.0 0.0
03:02 3.6 3.2 97 1002.0 0.7 WSW 0.7 0.0 0.0
03:03 3.6 3.2 97 1002.1 0.7 WSW 0.7 0.0 0.0
03:04 3.6 3.2 97 1002.2 0.7 WSW 0.7 0.0 0.0
03:05 3.6 3.2 97 1002.0 0.7 WSW 0.7 0.0 0.0
03:06 3.7 3.3 97 1001.9 2.2 W 2.2 0.0 0.0
03:07 3.7 3.3 97 1002.0 2.2 W 2.2 0.0 0.0
03:08 3.7 3.3 97 1002.1 2.2 W 2.2 0.0 0.0
03:10 3.7 3.3 97 1002.1 1.6 SW 2.2 0.0 0.0
03:11 3.7 3.3 97 1002.1 1.6 SW 2.2 0.0 0.0
03:12 3.8 3.4 97 1001.8 1.6 SW 2.2 0.0 0.0
03:13 3.8 3.4 97 1001.9 0.7 SW 2.2 0.0 0.0
03:14 3.8 3.4 97 1002.1 1.6 SW 2.2 0.0 0.0
03:15 3.8 3.4 97 1002.0 0.7 SW 2.2 0.0 0.0
05:32 4.7 4.3 97 1003.6 2.2 W 5.4 0.0 0.1
05:34 4.7 4.3 97 1003.4 1.6 W 5.4 0.0 0.1
05:35 4.7 4.3 97 1003.6 2.2 W 5.4 0.0 0.1
05:36 4.7 4.3 97 1003.6 2.2 W 5.4 0.0 0.1
05:37 4.7 4.3 97 1003.7 1.6 W 3.1 0.0 0.1
03:16 3.8 3.5 98 1001.9 1.6 W 2.2 0.0 0.0
03:17 3.8 3.5 98 1002.1 1.6 W 2.2 0.0 0.0
03:18 3.8 3.5 98 1002.2 2.2 NW 2.2 0.0 0.0
03:19 3.8 3.5 98 1002.0 0.7 W 2.2 0.0 0.0
03:20 3.8 3.5 98 1002.1 1.6 W 2.2 0.0 0.0
03:21 3.8 3.5 98 1002.1 1.6 W 2.2 0.0 0.0
03:22 3.8 3.5 98 1001.9 0.7 NW 2.2 0.0 0.0
03:23 3.8 3.5 98 1002.1 0.7 W 2.2 0.0 0.0
03:24 3.8 3.5 98 1002.1 1.6 W 2.2 0.0 0.0
03:25 3.8 3.5 98 1002.3 1.6 W 2.2 0.0 0.0
03:26 3.8 3.5 98 1001.9 0.7 WSW 2.2 0.0 0.0
03:28 3.8 3.5 98 1002.0 1.6 W 1.6 0.0 0.0
03:29 3.8 3.5 98 1002.1 1.6 W 1.6 0.0 0.0
03:30 3.8 3.5 98 1002.0 1.6 W 1.6 0.0 0.0
03:31 3.8 3.5 98 1002.0 2.2 W 2.2 0.0 0.0
03:32 3.8 3.5 98 1002.2 2.2 W 2.2 0.0 0.0
03:33 3.9 3.6 98 1002.0 1.6 W 2.2 0.0 0.0
05:27 4.7 4.4 98 1003.7 3.1 W 5.4 0.0 0.1
05:28 4.7 4.4 98 1003.5 3.1 WNW 5.4 0.0 0.1
05:29 4.7 4.4 98 1003.6 1.6 W 5.4 0.0 0.1
05:30 4.7 4.4 98 1003.7 1.6 NW 5.4 0.0 0.1
05:31 4.7 4.4 98 1003.7 1.6 SW 5.4 0.0 0.1
03:34 3.9 3.8 99 1001.8 1.6 SW 2.2 0.0 0.0
03:35 3.9 3.8 99 1002.1 1.6 WNW 2.2 0.0 0.0
03:36 3.9 3.8 99 1002.0 2.2 W 2.2 0.0 0.0
03:37 3.9 3.8 99 1001.9 2.2 W 2.2 0.0 0.0
03:38 3.9 3.8 99 1002.1 0.7 W 2.2 0.0 0.0
03:39 3.9 3.8 99 1002.2 1.6 W 2.2 0.0 0.0
03:40 3.9 3.8 99 1002.1 2.2 W 2.2 0.0 0.0
03:41 3.9 3.8 99 1002.0 1.6 W 2.2 0.0 0.0
03:42 4.0 3.9 99 1002.0 1.6 W 2.2 0.0 0.0
03:43 4.0 3.9 99 1002.0 3.1 NW 3.1 0.0 0.0
03:45 4.0 3.9 99 1002.0 1.6 W 3.1 0.0 0.0
03:46 4.0 3.9 99 1002.3 0.7 NW 3.1 0.0 0.0
03:47 4.0 3.9 99 1002.0 1.6 W 3.1 0.0 0.0
03:48 4.0 3.9 99 1002.3 2.2 WNW 3.1 0.0 0.0
03:49 4.0 3.9 99 1002.1 2.2 W 3.1 0.0 0.0
03:50 4.1 4.0 99 1002.1 2.2 WNW 3.1 0.0 0.0
03:51 4.1 4.0 99 1002.3 3.1 W 3.1 0.0 0.0
03:52 4.1 4.0 99 1002.2 2.2 SW 3.1 0.0 0.0
03:53 4.1 4.0 99 1002.2 2.2 W 3.1 0.0 0.0
03:54 4.1 4.0 99 1002.3 1.6 NW 3.1 0.0 0.0
03:55 4.1 4.0 99 1002.3 2.2 WSW 3.1 0.0 0.0
03:56 4.2 4.1 99 1002.2 3.1 W 3.1 0.0 0.0
03:57 4.2 4.1 99 1002.4 2.2 W 3.1 0.0 0.0
03:58 4.2 4.1 99 1002.1 2.2 W 3.1 0.0 0.0
03:59 4.2 4.1 99 1002.3 2.2 W 3.1 0.0 0.0
04:00 4.3 4.2 99 1002.3 2.2 NW 3.1 0.0 0.0
04:01 4.3 4.2 99 1002.3 3.1 SW 3.1 0.0 0.0
04:03 4.3 4.2 99 1002.4 3.1 W 3.1 0.0 0.0
04:04 4.3 4.2 99 1002.2 3.1 W 3.1 0.0 0.0
04:05 4.3 4.2 99 1002.2 2.2 W 3.1 0.0 0.0
04:06 4.3 4.2 99 1002.3 3.1 W 3.1 0.0 0.0
05:17 4.7 4.6 99 1003.3 3.1 N 6.0 0.0 0.1
05:18 4.7 4.6 99 1003.1 2.2 WNW 6.0 0.0 0.1
05:19 4.7 4.6 99 1003.0 3.1 NW 6.0 0.0 0.1
05:20 4.7 4.6 99 1003.4 1.6 W 6.0 0.0 0.1
05:21 4.7 4.6 99 1003.2 2.2 NW 6.0 0.0 0.1
05:22 4.7 4.6 99 1003.4 3.1 W 4.5 0.0 0.1
05:23 4.7 4.6 99 1003.5 3.1 NW 3.8 0.0 0.1
05:24 4.7 4.6 99 1003.5 3.1 NW 3.8 0.0 0.1
05:25 4.7 4.6 99 1003.4 1.6 SW 3.1 0.0 0.1
05:26 4.7 4.6 99 1003.6 3.8 NNW 3.8 0.0 0.1
04:07 4.3 4.3 100 1002.3 3.1 W 3.1 0.0 0.0
04:08 4.3 4.3 100 1002.3 2.2 SW 3.1 0.0 0.0
04:09 4.3 4.3 100 1002.6 2.2 WSW 3.1 0.0 0.0
04:10 4.4 4.4 100 1002.4 2.2 WSW 3.1 0.0 0.0
04:11 4.4 4.4 100 1002.2 3.1 W 3.1 0.0 0.0
04:12 4.4 4.4 100 1002.4 2.2 W 3.1 0.0 0.0
04:13 4.4 4.4 100 1002.3 2.2 W 3.1 0.0 0.0
04:14 4.4 4.4 100 1002.5 2.2 W 3.1 0.0 0.0
04:15 4.4 4.4 100 1002.4 2.2 W 3.1 0.0 0.0
04:16 4.5 4.5 100 1002.5 3.1 W 3.1 0.0 0.0
04:17 4.5 4.5 100 1002.5 2.2 W 3.1 0.0 0.0
04:18 4.5 4.5 100 1002.4 3.1 W 3.1 0.0 0.0
04:19 4.5 4.5 100 1002.4 3.1 W 3.1 0.0 0.0
04:21 4.5 4.5 100 1002.6 2.2 WNW 3.1 0.0 0.0
04:22 4.5 4.5 100 1002.6 2.2 W 3.1 0.0 0.0
04:23 4.5 4.5 100 1002.4 2.2 WSW 3.1 0.0 0.0
04:24 4.5 4.5 100 1002.6 1.6 W 3.1 0.0 0.0
04:25 4.5 4.5 100 1002.6 0.7 W 3.1 0.0 0.0
04:26 4.5 4.5 100 1002.4 0.7 W 3.1 0.0 0.0
04:27 4.5 4.5 100 1002.4 0.7 W 3.1 0.0 0.0
04:28 4.5 4.5 100 1002.7 0.7 NW 3.1 0.0 0.0
04:29 4.5 4.5 100 1002.6 0.7 NW 3.1 0.0 0.0
04:30 4.5 4.5 100 1002.4 0.7 NW 2.2 0.0 0.0
04:31 4.5 4.5 100 1002.7 1.6 W 2.2 0.0 0.0
04:32 4.5 4.5 100 1002.6 1.6 NW 2.2 0.0 0.0
04:33 4.5 4.5 100 1002.5 1.6 W 2.2 0.0 0.0
04:34 4.5 4.5 100 1002.6 0.7 NW 1.6 0.0 0.0
04:35 4.5 4.5 100 1002.7 1.6 WNW 1.6 0.0 0.0
04:36 4.5 4.5 100 1002.5 1.6 NNW 1.6 0.0 0.0
04:37 4.5 4.5 100 1002.7 1.6 NW 1.6 0.0 0.0
04:39 4.5 4.5 100 1002.5 1.6 NW 1.6 0.0 0.0
04:40 4.5 4.5 100 1002.7 1.6 W 1.6 0.0 0.1
04:41 4.5 4.5 100 1002.6 1.6 W 1.6 0.8 0.1
04:42 4.5 4.5 100 1002.6 1.6 W 1.6 0.8 0.1
04:43 4.5 4.5 100 1002.7 1.6 NW 1.6 0.8 0.1
04:44 4.5 4.5 100 1002.7 3.1 W 3.1 0.8 0.1
04:45 4.5 4.5 100 1002.8 2.2 W 3.1 0.8 0.1
04:46 4.5 4.5 100 1002.8 1.6 NW 3.1 0.0 0.1
04:47 4.5 4.5 100 1002.8 3.8 NW 3.8 0.0 0.1
04:48 4.5 4.5 100 1002.9 3.8 N 3.8 0.0 0.1
04:49 4.5 4.5 100 1003.0 3.8 NW 3.8 0.0 0.1
04:50 4.5 4.5 100 1003.0 2.2 W 3.8 0.0 0.1
04:51 4.5 4.5 100 1002.8 2.2 W 3.8 0.0 0.1
04:52 4.5 4.5 100 1003.1 3.8 NW 3.8 0.0 0.1
04:53 4.5 4.5 100 1002.8 3.8 NW 3.8 0.0 0.1
04:54 4.5 4.5 100 1003.0 3.1 NW 3.8 0.0 0.1
04:55 4.5 4.5 100 1002.9 3.1 NW 3.8 0.0 0.1
04:56 4.5 4.5 100 1002.9 4.5 NW 4.5 0.0 0.1
04:58 4.6 4.6 100 1003.1 6.0 W 6.0 0.0 0.1
04:59 4.6 4.6 100 1003.1 6.0 W 6.0 0.0 0.1
05:00 4.6 4.6 100 1003.2 6.0 W 6.0 0.0 0.1
05:01 4.6 4.6 100 1002.9 6.0 W 6.0 0.0 0.1
05:02 4.6 4.6 100 1003.0 6.0 W 6.0 0.0 0.1
05:03 4.6 4.6 100 1002.9 6.0 W 6.0 0.0 0.1
05:04 4.6 4.6 100 1003.2 6.0 W 6.0 0.0 0.1
05:05 4.6 4.6 100 1003.0 6.0 W 6.0 0.0 0.1
05:06 4.6 4.6 100 1003.0 6.0 W 6.0 0.0 0.1
05:07 4.6 4.6 100 1003.0 6.0 W 6.0 0.0 0.1
05:08 4.7 4.7 100 1002.9 6.0 W 6.0 0.0 0.1
05:09 4.7 4.7 100 1003.1 6.0 W 6.0 0.0 0.1
05:10 4.7 4.7 100 1003.0 6.0 W 6.0 0.0 0.1
05:11 4.7 4.7 100 1003.0 4.5 W 6.0 0.0 0.1
05:12 4.7 4.7 100 1003.1 4.5 NW 6.0 0.0 0.1
05:13 4.7 4.7 100 1003.2 3.1 S 6.0 0.0 0.1
05:14 4.7 4.7 100 1003.0 3.1 SW 6.0 0.0 0.1
05:15 4.7 4.7 100 1003.1 3.1 SW 6.0 0.0 0.1

 

 

UK - WEATHER STATION TOPSITES - UK

Copyright © Carnkie Weather 2009 - 2024.